<?xml version="1.0" encoding="UTF-8" standalone="no" ?>
<gpx xmlns="http://www.topografix.com/GPX/1/1" xmlns:xsi="http://www.w3.org/2001/XMLSchema-instance" xsi:schemaLocation="http://www.topografix.com/GPX/1/1 http://www.topografix.com/GPX/1/1/gpx.xsd" version="1.1" creator="VisuGPX - https://www.visugpx.com">
  <metadata>
    <name>Sortie à vélo dans l'après-midi</name>
  </metadata>
  <trk>
    <name><![CDATA[Sortie à vélo dans l'après-midi]]></name>
    <trkseg>
      <trkpt lat="42.76863" lon="0.57898">
        <ele>1788.3</ele>
        <time>1970-01-01T00:00:00.000Z</time>
      </trkpt>
      <trkpt lat="42.76863" lon="0.57897">
        <ele>1788.3</ele>
        <time>1970-01-01T00:00:01.000Z</time>
      </trkpt>
      <trkpt lat="42.76861" lon="0.57896">
        <ele>1788.3</ele>
        <time>1970-01-01T00:00:03.000Z</time>
      </trkpt>
      <trkpt lat="42.7686" lon="0.57895">
        <ele>1788.3</ele>
        <time>1970-01-01T00:00:04.000Z</time>
      </trkpt>
      <trkpt lat="42.76857" lon="0.57895">
        <ele>1788.2</ele>
        <time>1970-01-01T00:00:06.000Z</time>
      </trkpt>
      <trkpt lat="42.76857" lon="0.57895">
        <ele>1788.2</ele>
        <time>1970-01-01T00:00:07.000Z</time>
      </trkpt>
      <trkpt lat="42.76857" lon="0.57895">
        <ele>1788.2</ele>
        <time>1970-01-01T00:00:08.000Z</time>
      </trkpt>
      <trkpt lat="42.76856" lon="0.57896">
        <ele>1788.2</ele>
        <time>1970-01-01T00:00:10.000Z</time>
      </trkpt>
      <trkpt lat="42.76847" lon="0.57883">
        <ele>1788</ele>
        <time>1970-01-01T00:00:18.000Z</time>
      </trkpt>
      <trkpt lat="42.7685" lon="0.57889">
        <ele>1788</ele>
        <time>1970-01-01T00:00:19.000Z</time>
      </trkpt>
      <trkpt lat="42.76851" lon="0.5789">
        <ele>1788</ele>
        <time>1970-01-01T00:00:20.000Z</time>
      </trkpt>
      <trkpt lat="42.76851" lon="0.57892">
        <ele>1787.9</ele>
        <time>1970-01-01T00:00:22.000Z</time>
      </trkpt>
      <trkpt lat="42.76851" lon="0.57893">
        <ele>1787.9</ele>
        <time>1970-01-01T00:00:23.000Z</time>
      </trkpt>
      <trkpt lat="42.76852" lon="0.57894">
        <ele>1787.9</ele>
        <time>1970-01-01T00:00:24.000Z</time>
      </trkpt>
      <trkpt lat="42.76852" lon="0.57895">
        <ele>1787.9</ele>
        <time>1970-01-01T00:00:26.000Z</time>
      </trkpt>
      <trkpt lat="42.76853" lon="0.57895">
        <ele>1787.9</ele>
        <time>1970-01-01T00:00:28.000Z</time>
      </trkpt>
      <trkpt lat="42.76852" lon="0.57895">
        <ele>1787.9</ele>
        <time>1970-01-01T00:00:29.000Z</time>
      </trkpt>
      <trkpt lat="42.76852" lon="0.57895">
        <ele>1787.9</ele>
        <time>1970-01-01T00:00:30.000Z</time>
      </trkpt>
      <trkpt lat="42.76851" lon="0.57894">
        <ele>1787.9</ele>
        <time>1970-01-01T00:00:32.000Z</time>
      </trkpt>
      <trkpt lat="42.76851" lon="0.57894">
        <ele>1787.9</ele>
        <time>1970-01-01T00:00:33.000Z</time>
      </trkpt>
      <trkpt lat="42.76851" lon="0.57894">
        <ele>1787.9</ele>
        <time>1970-01-01T00:00:34.000Z</time>
      </trkpt>
      <trkpt lat="42.76851" lon="0.57894">
        <ele>1787.9</ele>
        <time>1970-01-01T00:00:36.000Z</time>
      </trkpt>
      <trkpt lat="42.76848" lon="0.57888">
        <ele>1787.8</ele>
        <time>1970-01-01T00:01:15.000Z</time>
      </trkpt>
      <trkpt lat="42.76847" lon="0.57884">
        <ele>1787.7</ele>
        <time>1970-01-01T00:01:17.000Z</time>
      </trkpt>
      <trkpt lat="42.76847" lon="0.57878">
        <ele>1787.7</ele>
        <time>1970-01-01T00:01:18.000Z</time>
      </trkpt>
      <trkpt lat="42.76848" lon="0.57874">
        <ele>1787.6</ele>
        <time>1970-01-01T00:01:19.000Z</time>
      </trkpt>
      <trkpt lat="42.76848" lon="0.57872">
        <ele>1787.6</ele>
        <time>1970-01-01T00:01:20.000Z</time>
      </trkpt>
      <trkpt lat="42.7685" lon="0.57871">
        <ele>1787.6</ele>
        <time>1970-01-01T00:01:22.000Z</time>
      </trkpt>
      <trkpt lat="42.7685" lon="0.57871">
        <ele>1787.6</ele>
        <time>1970-01-01T00:01:23.000Z</time>
      </trkpt>
      <trkpt lat="42.7685" lon="0.57871">
        <ele>1787.6</ele>
        <time>1970-01-01T00:01:25.000Z</time>
      </trkpt>
      <trkpt lat="42.76854" lon="0.57874">
        <ele>1787.5</ele>
        <time>1970-01-01T00:01:27.000Z</time>
      </trkpt>
      <trkpt lat="42.76855" lon="0.57874">
        <ele>1787.5</ele>
        <time>1970-01-01T00:01:28.000Z</time>
      </trkpt>
      <trkpt lat="42.76858" lon="0.57876">
        <ele>1787.5</ele>
        <time>1970-01-01T00:01:30.000Z</time>
      </trkpt>
      <trkpt lat="42.76864" lon="0.57879">
        <ele>1787.4</ele>
        <time>1970-01-01T00:01:32.000Z</time>
      </trkpt>
      <trkpt lat="42.76869" lon="0.57882">
        <ele>1787.3</ele>
        <time>1970-01-01T00:01:33.000Z</time>
      </trkpt>
      <trkpt lat="42.76874" lon="0.57885">
        <ele>1787.2</ele>
        <time>1970-01-01T00:01:34.000Z</time>
      </trkpt>
      <trkpt lat="42.76878" lon="0.57887">
        <ele>1787.1</ele>
        <time>1970-01-01T00:01:36.000Z</time>
      </trkpt>
      <trkpt lat="42.7688" lon="0.57888">
        <ele>1786.9</ele>
        <time>1970-01-01T00:01:37.000Z</time>
      </trkpt>
      <trkpt lat="42.76884" lon="0.57889">
        <ele>1786.8</ele>
        <time>1970-01-01T00:01:38.000Z</time>
      </trkpt>
      <trkpt lat="42.7689" lon="0.57891">
        <ele>1786.6</ele>
        <time>1970-01-01T00:01:40.000Z</time>
      </trkpt>
      <trkpt lat="42.76893" lon="0.5789">
        <ele>1786.5</ele>
        <time>1970-01-01T00:01:41.000Z</time>
      </trkpt>
      <trkpt lat="42.76898" lon="0.57888">
        <ele>1786.3</ele>
        <time>1970-01-01T00:01:43.000Z</time>
      </trkpt>
      <trkpt lat="42.76901" lon="0.57886">
        <ele>1786.2</ele>
        <time>1970-01-01T00:01:44.000Z</time>
      </trkpt>
      <trkpt lat="42.76904" lon="0.57885">
        <ele>1786.1</ele>
        <time>1970-01-01T00:01:45.000Z</time>
      </trkpt>
      <trkpt lat="42.76909" lon="0.57882">
        <ele>1785.9</ele>
        <time>1970-01-01T00:01:47.000Z</time>
      </trkpt>
      <trkpt lat="42.76915" lon="0.57878">
        <ele>1785.7</ele>
        <time>1970-01-01T00:01:49.000Z</time>
      </trkpt>
      <trkpt lat="42.76919" lon="0.57875">
        <ele>1785.5</ele>
        <time>1970-01-01T00:01:50.000Z</time>
      </trkpt>
      <trkpt lat="42.76926" lon="0.5787">
        <ele>1785.3</ele>
        <time>1970-01-01T00:01:52.000Z</time>
      </trkpt>
      <trkpt lat="42.76932" lon="0.57867">
        <ele>1785.1</ele>
        <time>1970-01-01T00:01:53.000Z</time>
      </trkpt>
      <trkpt lat="42.76936" lon="0.57864">
        <ele>1785</ele>
        <time>1970-01-01T00:01:55.000Z</time>
      </trkpt>
      <trkpt lat="42.7694" lon="0.57861">
        <ele>1784.9</ele>
        <time>1970-01-01T00:01:56.000Z</time>
      </trkpt>
      <trkpt lat="42.76945" lon="0.57855">
        <ele>1784.9</ele>
        <time>1970-01-01T00:01:58.000Z</time>
      </trkpt>
      <trkpt lat="42.76947" lon="0.57851">
        <ele>1784.9</ele>
        <time>1970-01-01T00:01:59.000Z</time>
      </trkpt>
      <trkpt lat="42.76948" lon="0.57847">
        <ele>1785</ele>
        <time>1970-01-01T00:02:00.000Z</time>
      </trkpt>
      <trkpt lat="42.76949" lon="0.57844">
        <ele>1785</ele>
        <time>1970-01-01T00:02:01.000Z</time>
      </trkpt>
      <trkpt lat="42.7695" lon="0.57841">
        <ele>1785</ele>
        <time>1970-01-01T00:02:02.000Z</time>
      </trkpt>
      <trkpt lat="42.7695" lon="0.5784">
        <ele>1785.1</ele>
        <time>1970-01-01T00:02:03.000Z</time>
      </trkpt>
      <trkpt lat="42.7695" lon="0.5784">
        <ele>1785.1</ele>
        <time>1970-01-01T00:02:05.000Z</time>
      </trkpt>
      <trkpt lat="42.7695" lon="0.5784">
        <ele>1785.1</ele>
        <time>1970-01-01T00:02:06.000Z</time>
      </trkpt>
      <trkpt lat="42.7695" lon="0.5784">
        <ele>1785.1</ele>
        <time>1970-01-01T00:02:07.000Z</time>
      </trkpt>
      <trkpt lat="42.7695" lon="0.57839">
        <ele>1785.1</ele>
        <time>1970-01-01T00:02:09.000Z</time>
      </trkpt>
      <trkpt lat="42.76951" lon="0.57838">
        <ele>1785.1</ele>
        <time>1970-01-01T00:02:10.000Z</time>
      </trkpt>
      <trkpt lat="42.76951" lon="0.57837">
        <ele>1785.1</ele>
        <time>1970-01-01T00:02:12.000Z</time>
      </trkpt>
      <trkpt lat="42.76952" lon="0.57837">
        <ele>1785.1</ele>
        <time>1970-01-01T00:02:14.000Z</time>
      </trkpt>
      <trkpt lat="42.76952" lon="0.57836">
        <ele>1785.1</ele>
        <time>1970-01-01T00:02:16.000Z</time>
      </trkpt>
      <trkpt lat="42.76953" lon="0.57836">
        <ele>1785.1</ele>
        <time>1970-01-01T00:02:17.000Z</time>
      </trkpt>
      <trkpt lat="42.76953" lon="0.57835">
        <ele>1785.1</ele>
        <time>1970-01-01T00:02:19.000Z</time>
      </trkpt>
      <trkpt lat="42.76953" lon="0.57834">
        <ele>1785.1</ele>
        <time>1970-01-01T00:02:20.000Z</time>
      </trkpt>
      <trkpt lat="42.76953" lon="0.57833">
        <ele>1785.1</ele>
        <time>1970-01-01T00:02:22.000Z</time>
      </trkpt>
      <trkpt lat="42.76953" lon="0.57833">
        <ele>1785.2</ele>
        <time>1970-01-01T00:02:23.000Z</time>
      </trkpt>
      <trkpt lat="42.76952" lon="0.57832">
        <ele>1785.2</ele>
        <time>1970-01-01T00:02:25.000Z</time>
      </trkpt>
      <trkpt lat="42.76953" lon="0.57832">
        <ele>1785.2</ele>
        <time>1970-01-01T00:02:27.000Z</time>
      </trkpt>
      <trkpt lat="42.76953" lon="0.57832">
        <ele>1785.2</ele>
        <time>1970-01-01T00:02:28.000Z</time>
      </trkpt>
      <trkpt lat="42.76953" lon="0.57832">
        <ele>1785.2</ele>
        <time>1970-01-01T00:02:30.000Z</time>
      </trkpt>
      <trkpt lat="42.76953" lon="0.57832">
        <ele>1785.2</ele>
        <time>1970-01-01T00:02:31.000Z</time>
      </trkpt>
      <trkpt lat="42.76953" lon="0.57831">
        <ele>1785.2</ele>
        <time>1970-01-01T00:02:33.000Z</time>
      </trkpt>
      <trkpt lat="42.76953" lon="0.57831">
        <ele>1785.2</ele>
        <time>1970-01-01T00:02:34.000Z</time>
      </trkpt>
      <trkpt lat="42.76953" lon="0.5783">
        <ele>1785.2</ele>
        <time>1970-01-01T00:02:35.000Z</time>
      </trkpt>
      <trkpt lat="42.76953" lon="0.57829">
        <ele>1785.2</ele>
        <time>1970-01-01T00:02:37.000Z</time>
      </trkpt>
      <trkpt lat="42.76953" lon="0.57829">
        <ele>1785.2</ele>
        <time>1970-01-01T00:02:38.000Z</time>
      </trkpt>
      <trkpt lat="42.76949" lon="0.57837">
        <ele>1784.6</ele>
        <time>1970-01-01T00:02:40.000Z</time>
      </trkpt>
      <trkpt lat="42.76948" lon="0.5784">
        <ele>1784.5</ele>
        <time>1970-01-01T00:02:41.000Z</time>
      </trkpt>
      <trkpt lat="42.76948" lon="0.5784">
        <ele>1784.4</ele>
        <time>1970-01-01T00:02:43.000Z</time>
      </trkpt>
      <trkpt lat="42.76949" lon="0.57839">
        <ele>1784.4</ele>
        <time>1970-01-01T00:02:44.000Z</time>
      </trkpt>
      <trkpt lat="42.7695" lon="0.57836">
        <ele>1785</ele>
        <time>1970-01-01T00:02:46.000Z</time>
      </trkpt>
      <trkpt lat="42.76951" lon="0.57835">
        <ele>1784.9</ele>
        <time>1970-01-01T00:02:47.000Z</time>
      </trkpt>
      <trkpt lat="42.76951" lon="0.57834">
        <ele>1784.1</ele>
        <time>1970-01-01T00:02:48.000Z</time>
      </trkpt>
      <trkpt lat="42.76952" lon="0.57832">
        <ele>1784.6</ele>
        <time>1970-01-01T00:02:50.000Z</time>
      </trkpt>
      <trkpt lat="42.76953" lon="0.57831">
        <ele>1784.6</ele>
        <time>1970-01-01T00:02:51.000Z</time>
      </trkpt>
      <trkpt lat="42.76954" lon="0.57831">
        <ele>1784.5</ele>
        <time>1970-01-01T00:02:52.000Z</time>
      </trkpt>
      <trkpt lat="42.76955" lon="0.5783">
        <ele>1783.8</ele>
        <time>1970-01-01T00:02:54.000Z</time>
      </trkpt>
      <trkpt lat="42.76954" lon="0.57829">
        <ele>1783.7</ele>
        <time>1970-01-01T00:02:55.000Z</time>
      </trkpt>
      <trkpt lat="42.76954" lon="0.57829">
        <ele>1784.3</ele>
        <time>1970-01-01T00:02:56.000Z</time>
      </trkpt>
      <trkpt lat="42.76953" lon="0.5783">
        <ele>1784.2</ele>
        <time>1970-01-01T00:02:58.000Z</time>
      </trkpt>
      <trkpt lat="42.76952" lon="0.57831">
        <ele>1784.2</ele>
        <time>1970-01-01T00:02:59.000Z</time>
      </trkpt>
      <trkpt lat="42.76951" lon="0.57832">
        <ele>1784.1</ele>
        <time>1970-01-01T00:03:01.000Z</time>
      </trkpt>
      <trkpt lat="42.76951" lon="0.57833">
        <ele>1784</ele>
        <time>1970-01-01T00:03:02.000Z</time>
      </trkpt>
      <trkpt lat="42.76951" lon="0.57834">
        <ele>1783.3</ele>
        <time>1970-01-01T00:03:04.000Z</time>
      </trkpt>
      <trkpt lat="42.76951" lon="0.57834">
        <ele>1783.3</ele>
        <time>1970-01-01T00:03:05.000Z</time>
      </trkpt>
      <trkpt lat="42.76951" lon="0.57833">
        <ele>1783.9</ele>
        <time>1970-01-01T00:03:06.000Z</time>
      </trkpt>
      <trkpt lat="42.7695" lon="0.57833">
        <ele>1783.8</ele>
        <time>1970-01-01T00:03:07.000Z</time>
      </trkpt>
      <trkpt lat="42.7695" lon="0.57833">
        <ele>1783.8</ele>
        <time>1970-01-01T00:03:08.000Z</time>
      </trkpt>
      <trkpt lat="42.76952" lon="0.57832">
        <ele>1783.6</ele>
        <time>1970-01-01T00:03:09.000Z</time>
      </trkpt>
      <trkpt lat="42.76956" lon="0.57832">
        <ele>1782.9</ele>
        <time>1970-01-01T00:03:11.000Z</time>
      </trkpt>
      <trkpt lat="42.76956" lon="0.57831">
        <ele>1782.8</ele>
        <time>1970-01-01T00:03:12.000Z</time>
      </trkpt>
      <trkpt lat="42.76957" lon="0.5783">
        <ele>1782.7</ele>
        <time>1970-01-01T00:03:13.000Z</time>
      </trkpt>
      <trkpt lat="42.76959" lon="0.57827">
        <ele>1782.6</ele>
        <time>1970-01-01T00:03:15.000Z</time>
      </trkpt>
      <trkpt lat="42.76965" lon="0.57823">
        <ele>1781.5</ele>
        <time>1970-01-01T00:03:16.000Z</time>
      </trkpt>
      <trkpt lat="42.76994" lon="0.57808">
        <ele>1774.4</ele>
        <time>1970-01-01T00:03:18.000Z</time>
      </trkpt>
      <trkpt lat="42.76997" lon="0.57804">
        <ele>1773.7</ele>
        <time>1970-01-01T00:03:19.000Z</time>
      </trkpt>
      <trkpt lat="42.77004" lon="0.5779">
        <ele>1772.8</ele>
        <time>1970-01-01T00:03:21.000Z</time>
      </trkpt>
      <trkpt lat="42.77005" lon="0.57789">
        <ele>1771.9</ele>
        <time>1970-01-01T00:03:23.000Z</time>
      </trkpt>
      <trkpt lat="42.77005" lon="0.57791">
        <ele>1771.6</ele>
        <time>1970-01-01T00:03:24.000Z</time>
      </trkpt>
      <trkpt lat="42.77005" lon="0.57791">
        <ele>1771.5</ele>
        <time>1970-01-01T00:03:25.000Z</time>
      </trkpt>
      <trkpt lat="42.77004" lon="0.57791">
        <ele>1772.3</ele>
        <time>1970-01-01T00:03:26.000Z</time>
      </trkpt>
      <trkpt lat="42.77004" lon="0.57788">
        <ele>1772.4</ele>
        <time>1970-01-01T00:03:28.000Z</time>
      </trkpt>
      <trkpt lat="42.77005" lon="0.57787">
        <ele>1772.3</ele>
        <time>1970-01-01T00:03:29.000Z</time>
      </trkpt>
      <trkpt lat="42.77005" lon="0.57785">
        <ele>1771.7</ele>
        <time>1970-01-01T00:03:30.000Z</time>
      </trkpt>
      <trkpt lat="42.77005" lon="0.5778">
        <ele>1771.7</ele>
        <time>1970-01-01T00:03:31.000Z</time>
      </trkpt>
      <trkpt lat="42.77006" lon="0.57777">
        <ele>1771.8</ele>
        <time>1970-01-01T00:03:32.000Z</time>
      </trkpt>
      <trkpt lat="42.77007" lon="0.57774">
        <ele>1771.7</ele>
        <time>1970-01-01T00:03:33.000Z</time>
      </trkpt>
      <trkpt lat="42.77019" lon="0.57749">
        <ele>1768.5</ele>
        <time>1970-01-01T00:03:35.000Z</time>
      </trkpt>
      <trkpt lat="42.77026" lon="0.57728">
        <ele>1765.8</ele>
        <time>1970-01-01T00:03:37.000Z</time>
      </trkpt>
      <trkpt lat="42.77029" lon="0.57716">
        <ele>1764.3</ele>
        <time>1970-01-01T00:03:38.000Z</time>
      </trkpt>
      <trkpt lat="42.77032" lon="0.57694">
        <ele>1762</ele>
        <time>1970-01-01T00:03:40.000Z</time>
      </trkpt>
      <trkpt lat="42.77031" lon="0.57684">
        <ele>1761.2</ele>
        <time>1970-01-01T00:03:41.000Z</time>
      </trkpt>
      <trkpt lat="42.7703" lon="0.57675">
        <ele>1760.3</ele>
        <time>1970-01-01T00:03:42.000Z</time>
      </trkpt>
      <trkpt lat="42.77031" lon="0.57669">
        <ele>1759.2</ele>
        <time>1970-01-01T00:03:43.000Z</time>
      </trkpt>
      <trkpt lat="42.77033" lon="0.57668">
        <ele>1758.5</ele>
        <time>1970-01-01T00:03:44.000Z</time>
      </trkpt>
      <trkpt lat="42.77049" lon="0.57675">
        <ele>1756.3</ele>
        <time>1970-01-01T00:03:46.000Z</time>
      </trkpt>
      <trkpt lat="42.7706" lon="0.57698">
        <ele>1755.4</ele>
        <time>1970-01-01T00:03:48.000Z</time>
      </trkpt>
      <trkpt lat="42.77063" lon="0.57712">
        <ele>1755.2</ele>
        <time>1970-01-01T00:03:49.000Z</time>
      </trkpt>
      <trkpt lat="42.77064" lon="0.57725">
        <ele>1755.8</ele>
        <time>1970-01-01T00:03:50.000Z</time>
      </trkpt>
      <trkpt lat="42.77066" lon="0.57749">
        <ele>1755</ele>
        <time>1970-01-01T00:03:52.000Z</time>
      </trkpt>
      <trkpt lat="42.77067" lon="0.57759">
        <ele>1754.6</ele>
        <time>1970-01-01T00:03:53.000Z</time>
      </trkpt>
      <trkpt lat="42.7707" lon="0.57766">
        <ele>1753.1</ele>
        <time>1970-01-01T00:03:54.000Z</time>
      </trkpt>
      <trkpt lat="42.77078" lon="0.57775">
        <ele>1749.3</ele>
        <time>1970-01-01T00:03:56.000Z</time>
      </trkpt>
      <trkpt lat="42.77085" lon="0.57771">
        <ele>1746.7</ele>
        <time>1970-01-01T00:03:58.000Z</time>
      </trkpt>
      <trkpt lat="42.77089" lon="0.57759">
        <ele>1745.8</ele>
        <time>1970-01-01T00:04:00.000Z</time>
      </trkpt>
      <trkpt lat="42.77092" lon="0.57754">
        <ele>1744.5</ele>
        <time>1970-01-01T00:04:02.000Z</time>
      </trkpt>
      <trkpt lat="42.77094" lon="0.57758">
        <ele>1742.9</ele>
        <time>1970-01-01T00:04:03.000Z</time>
      </trkpt>
      <trkpt lat="42.77095" lon="0.57762">
        <ele>1742.7</ele>
        <time>1970-01-01T00:04:04.000Z</time>
      </trkpt>
      <trkpt lat="42.77094" lon="0.57768">
        <ele>1742.4</ele>
        <time>1970-01-01T00:04:06.000Z</time>
      </trkpt>
      <trkpt lat="42.77097" lon="0.57767">
        <ele>1741.1</ele>
        <time>1970-01-01T00:04:07.000Z</time>
      </trkpt>
      <trkpt lat="42.77101" lon="0.57766">
        <ele>1739.6</ele>
        <time>1970-01-01T00:04:09.000Z</time>
      </trkpt>
      <trkpt lat="42.77104" lon="0.57767">
        <ele>1738.1</ele>
        <time>1970-01-01T00:04:11.000Z</time>
      </trkpt>
      <trkpt lat="42.77107" lon="0.5777">
        <ele>1736.3</ele>
        <time>1970-01-01T00:04:12.000Z</time>
      </trkpt>
      <trkpt lat="42.77112" lon="0.57772">
        <ele>1732.7</ele>
        <time>1970-01-01T00:04:14.000Z</time>
      </trkpt>
      <trkpt lat="42.77118" lon="0.57774">
        <ele>1730.8</ele>
        <time>1970-01-01T00:04:15.000Z</time>
      </trkpt>
      <trkpt lat="42.77121" lon="0.57777">
        <ele>1728.8</ele>
        <time>1970-01-01T00:04:16.000Z</time>
      </trkpt>
      <trkpt lat="42.77125" lon="0.57783">
        <ele>1724.4</ele>
        <time>1970-01-01T00:04:18.000Z</time>
      </trkpt>
      <trkpt lat="42.77129" lon="0.57786">
        <ele>1722.3</ele>
        <time>1970-01-01T00:04:19.000Z</time>
      </trkpt>
      <trkpt lat="42.77133" lon="0.57787">
        <ele>1720.6</ele>
        <time>1970-01-01T00:04:20.000Z</time>
      </trkpt>
      <trkpt lat="42.77137" lon="0.57785">
        <ele>1719.2</ele>
        <time>1970-01-01T00:04:21.000Z</time>
      </trkpt>
      <trkpt lat="42.77144" lon="0.57775">
        <ele>1714.3</ele>
        <time>1970-01-01T00:04:23.000Z</time>
      </trkpt>
      <trkpt lat="42.77147" lon="0.57767">
        <ele>1712.7</ele>
        <time>1970-01-01T00:04:24.000Z</time>
      </trkpt>
      <trkpt lat="42.77149" lon="0.57756">
        <ele>1712.7</ele>
        <time>1970-01-01T00:04:26.000Z</time>
      </trkpt>
      <trkpt lat="42.77148" lon="0.57756">
        <ele>1712.6</ele>
        <time>1970-01-01T00:04:27.000Z</time>
      </trkpt>
      <trkpt lat="42.77147" lon="0.57759">
        <ele>1712.6</ele>
        <time>1970-01-01T00:04:28.000Z</time>
      </trkpt>
      <trkpt lat="42.77152" lon="0.5776">
        <ele>1710.7</ele>
        <time>1970-01-01T00:04:30.000Z</time>
      </trkpt>
      <trkpt lat="42.77156" lon="0.57748">
        <ele>1709</ele>
        <time>1970-01-01T00:04:32.000Z</time>
      </trkpt>
      <trkpt lat="42.77154" lon="0.57756">
        <ele>1708.8</ele>
        <time>1970-01-01T00:04:33.000Z</time>
      </trkpt>
      <trkpt lat="42.77155" lon="0.57755">
        <ele>1708.8</ele>
        <time>1970-01-01T00:04:35.000Z</time>
      </trkpt>
      <trkpt lat="42.77156" lon="0.57753">
        <ele>1706.9</ele>
        <time>1970-01-01T00:04:36.000Z</time>
      </trkpt>
      <trkpt lat="42.77159" lon="0.57752">
        <ele>1706.8</ele>
        <time>1970-01-01T00:04:37.000Z</time>
      </trkpt>
      <trkpt lat="42.7716" lon="0.57752">
        <ele>1704.9</ele>
        <time>1970-01-01T00:04:39.000Z</time>
      </trkpt>
      <trkpt lat="42.77161" lon="0.57752">
        <ele>1704.8</ele>
        <time>1970-01-01T00:04:40.000Z</time>
      </trkpt>
      <trkpt lat="42.77164" lon="0.57753">
        <ele>1702.8</ele>
        <time>1970-01-01T00:04:41.000Z</time>
      </trkpt>
      <trkpt lat="42.77168" lon="0.57753">
        <ele>1700.8</ele>
        <time>1970-01-01T00:04:43.000Z</time>
      </trkpt>
      <trkpt lat="42.77169" lon="0.57753">
        <ele>1698.6</ele>
        <time>1970-01-01T00:04:44.000Z</time>
      </trkpt>
      <trkpt lat="42.77172" lon="0.57753">
        <ele>1696.4</ele>
        <time>1970-01-01T00:04:45.000Z</time>
      </trkpt>
      <trkpt lat="42.77175" lon="0.57754">
        <ele>1694.3</ele>
        <time>1970-01-01T00:04:46.000Z</time>
      </trkpt>
      <trkpt lat="42.77179" lon="0.57753">
        <ele>1692.3</ele>
        <time>1970-01-01T00:04:47.000Z</time>
      </trkpt>
      <trkpt lat="42.7718" lon="0.57753">
        <ele>1692.2</ele>
        <time>1970-01-01T00:04:48.000Z</time>
      </trkpt>
      <trkpt lat="42.77184" lon="0.57752">
        <ele>1690.2</ele>
        <time>1970-01-01T00:04:50.000Z</time>
      </trkpt>
      <trkpt lat="42.77186" lon="0.57751">
        <ele>1688.3</ele>
        <time>1970-01-01T00:04:51.000Z</time>
      </trkpt>
      <trkpt lat="42.77191" lon="0.57744">
        <ele>1683.9</ele>
        <time>1970-01-01T00:04:53.000Z</time>
      </trkpt>
      <trkpt lat="42.77194" lon="0.5774">
        <ele>1681.4</ele>
        <time>1970-01-01T00:04:54.000Z</time>
      </trkpt>
      <trkpt lat="42.77196" lon="0.57737">
        <ele>1681.2</ele>
        <time>1970-01-01T00:04:55.000Z</time>
      </trkpt>
      <trkpt lat="42.77199" lon="0.57734">
        <ele>1678.4</ele>
        <time>1970-01-01T00:04:57.000Z</time>
      </trkpt>
      <trkpt lat="42.77202" lon="0.57732">
        <ele>1675.9</ele>
        <time>1970-01-01T00:04:59.000Z</time>
      </trkpt>
      <trkpt lat="42.77205" lon="0.57731">
        <ele>1673.5</ele>
        <time>1970-01-01T00:05:00.000Z</time>
      </trkpt>
      <trkpt lat="42.77209" lon="0.5773">
        <ele>1671.3</ele>
        <time>1970-01-01T00:05:02.000Z</time>
      </trkpt>
      <trkpt lat="42.77211" lon="0.57729">
        <ele>1668.6</ele>
        <time>1970-01-01T00:05:03.000Z</time>
      </trkpt>
      <trkpt lat="42.77214" lon="0.57728">
        <ele>1666.3</ele>
        <time>1970-01-01T00:05:05.000Z</time>
      </trkpt>
      <trkpt lat="42.77216" lon="0.57728">
        <ele>1663.9</ele>
        <time>1970-01-01T00:05:06.000Z</time>
      </trkpt>
      <trkpt lat="42.77219" lon="0.57725">
        <ele>1660.7</ele>
        <time>1970-01-01T00:05:07.000Z</time>
      </trkpt>
      <trkpt lat="42.77222" lon="0.5772">
        <ele>1659.9</ele>
        <time>1970-01-01T00:05:08.000Z</time>
      </trkpt>
      <trkpt lat="42.77224" lon="0.57717">
        <ele>1656.6</ele>
        <time>1970-01-01T00:05:10.000Z</time>
      </trkpt>
      <trkpt lat="42.77225" lon="0.57716">
        <ele>1656.5</ele>
        <time>1970-01-01T00:05:11.000Z</time>
      </trkpt>
      <trkpt lat="42.77227" lon="0.57712">
        <ele>1653.3</ele>
        <time>1970-01-01T00:05:12.000Z</time>
      </trkpt>
      <trkpt lat="42.77229" lon="0.57711">
        <ele>1651</ele>
        <time>1970-01-01T00:05:13.000Z</time>
      </trkpt>
      <trkpt lat="42.77233" lon="0.5771">
        <ele>1648.9</ele>
        <time>1970-01-01T00:05:14.000Z</time>
      </trkpt>
      <trkpt lat="42.77237" lon="0.57713">
        <ele>1647.7</ele>
        <time>1970-01-01T00:05:16.000Z</time>
      </trkpt>
      <trkpt lat="42.77239" lon="0.57715">
        <ele>1645.7</ele>
        <time>1970-01-01T00:05:17.000Z</time>
      </trkpt>
      <trkpt lat="42.77241" lon="0.57716">
        <ele>1645.6</ele>
        <time>1970-01-01T00:05:18.000Z</time>
      </trkpt>
      <trkpt lat="42.77245" lon="0.57717">
        <ele>1641.5</ele>
        <time>1970-01-01T00:05:19.000Z</time>
      </trkpt>
      <trkpt lat="42.77254" lon="0.57717">
        <ele>1636.7</ele>
        <time>1970-01-01T00:05:21.000Z</time>
      </trkpt>
      <trkpt lat="42.77266" lon="0.57717">
        <ele>1630.8</ele>
        <time>1970-01-01T00:05:22.000Z</time>
      </trkpt>
      <trkpt lat="42.77279" lon="0.57718">
        <ele>1624.9</ele>
        <time>1970-01-01T00:05:24.000Z</time>
      </trkpt>
      <trkpt lat="42.77289" lon="0.5772">
        <ele>1620.9</ele>
        <time>1970-01-01T00:05:25.000Z</time>
      </trkpt>
      <trkpt lat="42.77297" lon="0.57722">
        <ele>1619.1</ele>
        <time>1970-01-01T00:05:26.000Z</time>
      </trkpt>
      <trkpt lat="42.77304" lon="0.57723">
        <ele>1615.1</ele>
        <time>1970-01-01T00:05:27.000Z</time>
      </trkpt>
      <trkpt lat="42.77308" lon="0.57723">
        <ele>1613.6</ele>
        <time>1970-01-01T00:05:28.000Z</time>
      </trkpt>
      <trkpt lat="42.77311" lon="0.57724">
        <ele>1612.2</ele>
        <time>1970-01-01T00:05:29.000Z</time>
      </trkpt>
      <trkpt lat="42.77315" lon="0.57722">
        <ele>1610.7</ele>
        <time>1970-01-01T00:05:31.000Z</time>
      </trkpt>
      <trkpt lat="42.77315" lon="0.57721">
        <ele>1610</ele>
        <time>1970-01-01T00:05:32.000Z</time>
      </trkpt>
      <trkpt lat="42.77316" lon="0.57717">
        <ele>1609.9</ele>
        <time>1970-01-01T00:05:33.000Z</time>
      </trkpt>
      <trkpt lat="42.77315" lon="0.57713">
        <ele>1609.2</ele>
        <time>1970-01-01T00:05:34.000Z</time>
      </trkpt>
      <trkpt lat="42.77314" lon="0.57712">
        <ele>1608.4</ele>
        <time>1970-01-01T00:05:35.000Z</time>
      </trkpt>
      <trkpt lat="42.77314" lon="0.57709">
        <ele>1608.3</ele>
        <time>1970-01-01T00:05:36.000Z</time>
      </trkpt>
      <trkpt lat="42.77315" lon="0.57706">
        <ele>1607.4</ele>
        <time>1970-01-01T00:05:38.000Z</time>
      </trkpt>
      <trkpt lat="42.77319" lon="0.57703">
        <ele>1605.3</ele>
        <time>1970-01-01T00:05:39.000Z</time>
      </trkpt>
      <trkpt lat="42.77322" lon="0.57702">
        <ele>1604</ele>
        <time>1970-01-01T00:05:40.000Z</time>
      </trkpt>
      <trkpt lat="42.77326" lon="0.57703">
        <ele>1602.7</ele>
        <time>1970-01-01T00:05:42.000Z</time>
      </trkpt>
      <trkpt lat="42.77329" lon="0.57705">
        <ele>1602.2</ele>
        <time>1970-01-01T00:05:43.000Z</time>
      </trkpt>
      <trkpt lat="42.77332" lon="0.57706">
        <ele>1600.7</ele>
        <time>1970-01-01T00:05:44.000Z</time>
      </trkpt>
      <trkpt lat="42.77335" lon="0.57706">
        <ele>1599.1</ele>
        <time>1970-01-01T00:05:45.000Z</time>
      </trkpt>
      <trkpt lat="42.77338" lon="0.57705">
        <ele>1597.5</ele>
        <time>1970-01-01T00:05:46.000Z</time>
      </trkpt>
      <trkpt lat="42.77341" lon="0.57703">
        <ele>1595.1</ele>
        <time>1970-01-01T00:05:48.000Z</time>
      </trkpt>
      <trkpt lat="42.77342" lon="0.57702">
        <ele>1593.7</ele>
        <time>1970-01-01T00:05:49.000Z</time>
      </trkpt>
      <trkpt lat="42.77342" lon="0.57698">
        <ele>1592.8</ele>
        <time>1970-01-01T00:05:50.000Z</time>
      </trkpt>
      <trkpt lat="42.77345" lon="0.57695">
        <ele>1590.7</ele>
        <time>1970-01-01T00:05:51.000Z</time>
      </trkpt>
      <trkpt lat="42.77347" lon="0.57694">
        <ele>1590.6</ele>
        <time>1970-01-01T00:05:52.000Z</time>
      </trkpt>
      <trkpt lat="42.7735" lon="0.57696">
        <ele>1590.3</ele>
        <time>1970-01-01T00:05:54.000Z</time>
      </trkpt>
      <trkpt lat="42.77353" lon="0.57697">
        <ele>1589</ele>
        <time>1970-01-01T00:05:55.000Z</time>
      </trkpt>
      <trkpt lat="42.77356" lon="0.57696">
        <ele>1587.6</ele>
        <time>1970-01-01T00:05:57.000Z</time>
      </trkpt>
      <trkpt lat="42.77357" lon="0.57695">
        <ele>1586.6</ele>
        <time>1970-01-01T00:05:58.000Z</time>
      </trkpt>
      <trkpt lat="42.7736" lon="0.57694">
        <ele>1585</ele>
        <time>1970-01-01T00:05:59.000Z</time>
      </trkpt>
      <trkpt lat="42.77361" lon="0.57693">
        <ele>1583.4</ele>
        <time>1970-01-01T00:06:00.000Z</time>
      </trkpt>
      <trkpt lat="42.77365" lon="0.57691">
        <ele>1581.8</ele>
        <time>1970-01-01T00:06:02.000Z</time>
      </trkpt>
      <trkpt lat="42.77368" lon="0.57688">
        <ele>1579.4</ele>
        <time>1970-01-01T00:06:04.000Z</time>
      </trkpt>
      <trkpt lat="42.77371" lon="0.57683">
        <ele>1577.1</ele>
        <time>1970-01-01T00:06:06.000Z</time>
      </trkpt>
      <trkpt lat="42.77372" lon="0.57682">
        <ele>1576.2</ele>
        <time>1970-01-01T00:06:07.000Z</time>
      </trkpt>
      <trkpt lat="42.77373" lon="0.5768">
        <ele>1576.1</ele>
        <time>1970-01-01T00:06:08.000Z</time>
      </trkpt>
      <trkpt lat="42.77375" lon="0.57675">
        <ele>1573.8</ele>
        <time>1970-01-01T00:06:09.000Z</time>
      </trkpt>
      <trkpt lat="42.77376" lon="0.57672">
        <ele>1571.5</ele>
        <time>1970-01-01T00:06:10.000Z</time>
      </trkpt>
      <trkpt lat="42.77378" lon="0.57667">
        <ele>1570.5</ele>
        <time>1970-01-01T00:06:12.000Z</time>
      </trkpt>
      <trkpt lat="42.77378" lon="0.5766">
        <ele>1568.4</ele>
        <time>1970-01-01T00:06:14.000Z</time>
      </trkpt>
      <trkpt lat="42.77381" lon="0.57659">
        <ele>1566.9</ele>
        <time>1970-01-01T00:06:15.000Z</time>
      </trkpt>
      <trkpt lat="42.77383" lon="0.5766">
        <ele>1565.2</ele>
        <time>1970-01-01T00:06:16.000Z</time>
      </trkpt>
      <trkpt lat="42.77386" lon="0.57661">
        <ele>1563.4</ele>
        <time>1970-01-01T00:06:17.000Z</time>
      </trkpt>
      <trkpt lat="42.77388" lon="0.5766">
        <ele>1563.3</ele>
        <time>1970-01-01T00:06:18.000Z</time>
      </trkpt>
      <trkpt lat="42.77391" lon="0.5766">
        <ele>1561.6</ele>
        <time>1970-01-01T00:06:19.000Z</time>
      </trkpt>
      <trkpt lat="42.77392" lon="0.5766">
        <ele>1561.5</ele>
        <time>1970-01-01T00:06:20.000Z</time>
      </trkpt>
      <trkpt lat="42.77396" lon="0.57659">
        <ele>1558.2</ele>
        <time>1970-01-01T00:06:22.000Z</time>
      </trkpt>
      <trkpt lat="42.77398" lon="0.57657">
        <ele>1558.2</ele>
        <time>1970-01-01T00:06:23.000Z</time>
      </trkpt>
      <trkpt lat="42.77402" lon="0.57657">
        <ele>1554.9</ele>
        <time>1970-01-01T00:06:25.000Z</time>
      </trkpt>
      <trkpt lat="42.77404" lon="0.57654">
        <ele>1553.9</ele>
        <time>1970-01-01T00:06:26.000Z</time>
      </trkpt>
      <trkpt lat="42.77405" lon="0.5765">
        <ele>1551.2</ele>
        <time>1970-01-01T00:06:27.000Z</time>
      </trkpt>
      <trkpt lat="42.77408" lon="0.57645">
        <ele>1550.1</ele>
        <time>1970-01-01T00:06:29.000Z</time>
      </trkpt>
      <trkpt lat="42.77411" lon="0.57645">
        <ele>1548.2</ele>
        <time>1970-01-01T00:06:30.000Z</time>
      </trkpt>
      <trkpt lat="42.77412" lon="0.57646">
        <ele>1546.3</ele>
        <time>1970-01-01T00:06:32.000Z</time>
      </trkpt>
      <trkpt lat="42.77417" lon="0.5765">
        <ele>1545.3</ele>
        <time>1970-01-01T00:06:34.000Z</time>
      </trkpt>
      <trkpt lat="42.77422" lon="0.57652">
        <ele>1541.3</ele>
        <time>1970-01-01T00:06:35.000Z</time>
      </trkpt>
      <trkpt lat="42.77426" lon="0.57653">
        <ele>1540.2</ele>
        <time>1970-01-01T00:06:36.000Z</time>
      </trkpt>
      <trkpt lat="42.77444" lon="0.57658">
        <ele>1529.6</ele>
        <time>1970-01-01T00:06:38.000Z</time>
      </trkpt>
      <trkpt lat="42.77451" lon="0.57662">
        <ele>1526.2</ele>
        <time>1970-01-01T00:06:39.000Z</time>
      </trkpt>
      <trkpt lat="42.77466" lon="0.57672">
        <ele>1518.7</ele>
        <time>1970-01-01T00:06:41.000Z</time>
      </trkpt>
      <trkpt lat="42.77461" lon="0.57674">
        <ele>1522.1</ele>
        <time>1970-01-01T00:06:42.000Z</time>
      </trkpt>
      <trkpt lat="42.77454" lon="0.57667">
        <ele>1524.9</ele>
        <time>1970-01-01T00:06:43.000Z</time>
      </trkpt>
      <trkpt lat="42.77448" lon="0.57662">
        <ele>1528</ele>
        <time>1970-01-01T00:06:44.000Z</time>
      </trkpt>
      <trkpt lat="42.77441" lon="0.57657">
        <ele>1531.2</ele>
        <time>1970-01-01T00:06:45.000Z</time>
      </trkpt>
      <trkpt lat="42.77441" lon="0.57655">
        <ele>1530.2</ele>
        <time>1970-01-01T00:06:46.000Z</time>
      </trkpt>
      <trkpt lat="42.77441" lon="0.57654">
        <ele>1530.2</ele>
        <time>1970-01-01T00:06:47.000Z</time>
      </trkpt>
      <trkpt lat="42.77441" lon="0.57655">
        <ele>1530.1</ele>
        <time>1970-01-01T00:06:49.000Z</time>
      </trkpt>
      <trkpt lat="42.77439" lon="0.57655">
        <ele>1531.9</ele>
        <time>1970-01-01T00:06:50.000Z</time>
      </trkpt>
      <trkpt lat="42.7744" lon="0.57656">
        <ele>1530</ele>
        <time>1970-01-01T00:06:51.000Z</time>
      </trkpt>
      <trkpt lat="42.77441" lon="0.57657">
        <ele>1530.8</ele>
        <time>1970-01-01T00:06:52.000Z</time>
      </trkpt>
      <trkpt lat="42.77443" lon="0.57656">
        <ele>1527.8</ele>
        <time>1970-01-01T00:06:53.000Z</time>
      </trkpt>
      <trkpt lat="42.77446" lon="0.57655">
        <ele>1525.7</ele>
        <time>1970-01-01T00:06:54.000Z</time>
      </trkpt>
      <trkpt lat="42.77457" lon="0.57655">
        <ele>1519.6</ele>
        <time>1970-01-01T00:06:56.000Z</time>
      </trkpt>
      <trkpt lat="42.77467" lon="0.57656">
        <ele>1514.1</ele>
        <time>1970-01-01T00:06:58.000Z</time>
      </trkpt>
      <trkpt lat="42.77476" lon="0.57658">
        <ele>1508.6</ele>
        <time>1970-01-01T00:07:00.000Z</time>
      </trkpt>
      <trkpt lat="42.7749" lon="0.5766">
        <ele>1499.1</ele>
        <time>1970-01-01T00:07:01.000Z</time>
      </trkpt>
      <trkpt lat="42.77498" lon="0.57661">
        <ele>1496</ele>
        <time>1970-01-01T00:07:02.000Z</time>
      </trkpt>
      <trkpt lat="42.77507" lon="0.57663">
        <ele>1489.6</ele>
        <time>1970-01-01T00:07:04.000Z</time>
      </trkpt>
      <trkpt lat="42.7751" lon="0.57663">
        <ele>1487.7</ele>
        <time>1970-01-01T00:07:05.000Z</time>
      </trkpt>
      <trkpt lat="42.77514" lon="0.57664">
        <ele>1485.9</ele>
        <time>1970-01-01T00:07:07.000Z</time>
      </trkpt>
      <trkpt lat="42.77517" lon="0.57664">
        <ele>1484.1</ele>
        <time>1970-01-01T00:07:09.000Z</time>
      </trkpt>
      <trkpt lat="42.7753" lon="0.57651">
        <ele>1472</ele>
        <time>1970-01-01T00:09:16.000Z</time>
      </trkpt>
      <trkpt lat="42.77537" lon="0.57656">
        <ele>1467.5</ele>
        <time>1970-01-01T00:09:18.000Z</time>
      </trkpt>
      <trkpt lat="42.77543" lon="0.5766">
        <ele>1467.1</ele>
        <time>1970-01-01T00:09:19.000Z</time>
      </trkpt>
      <trkpt lat="42.77551" lon="0.57662">
        <ele>1463</ele>
        <time>1970-01-01T00:09:20.000Z</time>
      </trkpt>
      <trkpt lat="42.77573" lon="0.57667">
        <ele>1451</ele>
        <time>1970-01-01T00:09:22.000Z</time>
      </trkpt>
      <trkpt lat="42.77586" lon="0.5767">
        <ele>1444.1</ele>
        <time>1970-01-01T00:09:23.000Z</time>
      </trkpt>
      <trkpt lat="42.77597" lon="0.57672">
        <ele>1442</ele>
        <time>1970-01-01T00:09:24.000Z</time>
      </trkpt>
      <trkpt lat="42.77622" lon="0.57675">
        <ele>1439.3</ele>
        <time>1970-01-01T00:09:26.000Z</time>
      </trkpt>
      <trkpt lat="42.77634" lon="0.57678">
        <ele>1438.5</ele>
        <time>1970-01-01T00:09:27.000Z</time>
      </trkpt>
      <trkpt lat="42.7766" lon="0.57685">
        <ele>1436.8</ele>
        <time>1970-01-01T00:09:29.000Z</time>
      </trkpt>
      <trkpt lat="42.77671" lon="0.5769">
        <ele>1436.1</ele>
        <time>1970-01-01T00:09:30.000Z</time>
      </trkpt>
      <trkpt lat="42.77683" lon="0.5769">
        <ele>1435.5</ele>
        <time>1970-01-01T00:09:31.000Z</time>
      </trkpt>
      <trkpt lat="42.77693" lon="0.57691">
        <ele>1435</ele>
        <time>1970-01-01T00:09:32.000Z</time>
      </trkpt>
      <trkpt lat="42.77709" lon="0.57692">
        <ele>1434.5</ele>
        <time>1970-01-01T00:09:34.000Z</time>
      </trkpt>
      <trkpt lat="42.77712" lon="0.57693">
        <ele>1434.3</ele>
        <time>1970-01-01T00:09:35.000Z</time>
      </trkpt>
      <trkpt lat="42.77713" lon="0.57694">
        <ele>1434.3</ele>
        <time>1970-01-01T00:09:36.000Z</time>
      </trkpt>
      <trkpt lat="42.77714" lon="0.57695">
        <ele>1434.3</ele>
        <time>1970-01-01T00:09:38.000Z</time>
      </trkpt>
      <trkpt lat="42.77715" lon="0.57696">
        <ele>1434.2</ele>
        <time>1970-01-01T00:09:39.000Z</time>
      </trkpt>
      <trkpt lat="42.77706" lon="0.57702">
        <ele>1434</ele>
        <time>1970-01-01T00:09:40.000Z</time>
      </trkpt>
      <trkpt lat="42.77705" lon="0.57703">
        <ele>1433.9</ele>
        <time>1970-01-01T00:09:41.000Z</time>
      </trkpt>
      <trkpt lat="42.77704" lon="0.57703">
        <ele>1433.9</ele>
        <time>1970-01-01T00:09:43.000Z</time>
      </trkpt>
      <trkpt lat="42.77702" lon="0.57704">
        <ele>1433.9</ele>
        <time>1970-01-01T00:09:44.000Z</time>
      </trkpt>
      <trkpt lat="42.77701" lon="0.57704">
        <ele>1433.8</ele>
        <time>1970-01-01T00:09:46.000Z</time>
      </trkpt>
      <trkpt lat="42.777" lon="0.57704">
        <ele>1433.8</ele>
        <time>1970-01-01T00:09:48.000Z</time>
      </trkpt>
      <trkpt lat="42.77699" lon="0.57704">
        <ele>1433.8</ele>
        <time>1970-01-01T00:09:49.000Z</time>
      </trkpt>
      <trkpt lat="42.77697" lon="0.57705">
        <ele>1433.8</ele>
        <time>1970-01-01T00:09:51.000Z</time>
      </trkpt>
      <trkpt lat="42.77696" lon="0.57705">
        <ele>1433.7</ele>
        <time>1970-01-01T00:10:12.000Z</time>
      </trkpt>
      <trkpt lat="42.77695" lon="0.57705">
        <ele>1433.7</ele>
        <time>1970-01-01T00:10:14.000Z</time>
      </trkpt>
      <trkpt lat="42.77694" lon="0.57706">
        <ele>1433.7</ele>
        <time>1970-01-01T00:10:15.000Z</time>
      </trkpt>
      <trkpt lat="42.77689" lon="0.57707">
        <ele>1433.6</ele>
        <time>1970-01-01T00:10:16.000Z</time>
      </trkpt>
      <trkpt lat="42.77687" lon="0.57708">
        <ele>1433.6</ele>
        <time>1970-01-01T00:10:18.000Z</time>
      </trkpt>
      <trkpt lat="42.77685" lon="0.57709">
        <ele>1433.6</ele>
        <time>1970-01-01T00:10:20.000Z</time>
      </trkpt>
      <trkpt lat="42.77685" lon="0.5771">
        <ele>1433.6</ele>
        <time>1970-01-01T00:10:21.000Z</time>
      </trkpt>
      <trkpt lat="42.77686" lon="0.57711">
        <ele>1433.6</ele>
        <time>1970-01-01T00:10:22.000Z</time>
      </trkpt>
      <trkpt lat="42.77686" lon="0.57712">
        <ele>1433.6</ele>
        <time>1970-01-01T00:10:24.000Z</time>
      </trkpt>
      <trkpt lat="42.77687" lon="0.57713">
        <ele>1433.6</ele>
        <time>1970-01-01T00:10:25.000Z</time>
      </trkpt>
      <trkpt lat="42.77687" lon="0.57714">
        <ele>1433.6</ele>
        <time>1970-01-01T00:10:26.000Z</time>
      </trkpt>
      <trkpt lat="42.7769" lon="0.57716">
        <ele>1433.6</ele>
        <time>1970-01-01T00:10:27.000Z</time>
      </trkpt>
      <trkpt lat="42.77694" lon="0.57714">
        <ele>1433.5</ele>
        <time>1970-01-01T00:10:29.000Z</time>
      </trkpt>
      <trkpt lat="42.77697" lon="0.57712">
        <ele>1433.5</ele>
        <time>1970-01-01T00:10:30.000Z</time>
      </trkpt>
      <trkpt lat="42.77701" lon="0.57709">
        <ele>1433.5</ele>
        <time>1970-01-01T00:10:31.000Z</time>
      </trkpt>
      <trkpt lat="42.77701" lon="0.57708">
        <ele>1433.5</ele>
        <time>1970-01-01T00:10:33.000Z</time>
      </trkpt>
      <trkpt lat="42.77702" lon="0.57708">
        <ele>1433.5</ele>
        <time>1970-01-01T00:10:34.000Z</time>
      </trkpt>
      <trkpt lat="42.77703" lon="0.57707">
        <ele>1433.5</ele>
        <time>1970-01-01T00:10:35.000Z</time>
      </trkpt>
      <trkpt lat="42.77705" lon="0.57707">
        <ele>1433.5</ele>
        <time>1970-01-01T00:10:37.000Z</time>
      </trkpt>
      <trkpt lat="42.77706" lon="0.57707">
        <ele>1433.4</ele>
        <time>1970-01-01T00:10:38.000Z</time>
      </trkpt>
      <trkpt lat="42.77709" lon="0.5771">
        <ele>1433.4</ele>
        <time>1970-01-01T00:10:40.000Z</time>
      </trkpt>
      <trkpt lat="42.77716" lon="0.57723">
        <ele>1433.1</ele>
        <time>1970-01-01T00:10:41.000Z</time>
      </trkpt>
      <trkpt lat="42.77721" lon="0.57736">
        <ele>1433.8</ele>
        <time>1970-01-01T00:10:43.000Z</time>
      </trkpt>
      <trkpt lat="42.77725" lon="0.57746">
        <ele>1434.6</ele>
        <time>1970-01-01T00:10:45.000Z</time>
      </trkpt>
      <trkpt lat="42.77731" lon="0.57756">
        <ele>1435.4</ele>
        <time>1970-01-01T00:10:47.000Z</time>
      </trkpt>
      <trkpt lat="42.77734" lon="0.5776">
        <ele>1435.7</ele>
        <time>1970-01-01T00:10:48.000Z</time>
      </trkpt>
      <trkpt lat="42.77736" lon="0.57763">
        <ele>1436</ele>
        <time>1970-01-01T00:10:49.000Z</time>
      </trkpt>
      <trkpt lat="42.77741" lon="0.5777">
        <ele>1436.6</ele>
        <time>1970-01-01T00:10:51.000Z</time>
      </trkpt>
      <trkpt lat="42.77743" lon="0.57773">
        <ele>1436.9</ele>
        <time>1970-01-01T00:10:52.000Z</time>
      </trkpt>
      <trkpt lat="42.77746" lon="0.57776">
        <ele>1437.1</ele>
        <time>1970-01-01T00:10:53.000Z</time>
      </trkpt>
      <trkpt lat="42.77748" lon="0.57778">
        <ele>1437.4</ele>
        <time>1970-01-01T00:10:54.000Z</time>
      </trkpt>
      <trkpt lat="42.77753" lon="0.57783">
        <ele>1437.7</ele>
        <time>1970-01-01T00:10:56.000Z</time>
      </trkpt>
      <trkpt lat="42.77755" lon="0.57785">
        <ele>1437.8</ele>
        <time>1970-01-01T00:10:57.000Z</time>
      </trkpt>
      <trkpt lat="42.77759" lon="0.5779">
        <ele>1438</ele>
        <time>1970-01-01T00:10:59.000Z</time>
      </trkpt>
      <trkpt lat="42.77766" lon="0.57795">
        <ele>1438.2</ele>
        <time>1970-01-01T00:11:00.000Z</time>
      </trkpt>
      <trkpt lat="42.7778" lon="0.57805">
        <ele>1438.3</ele>
        <time>1970-01-01T00:11:02.000Z</time>
      </trkpt>
      <trkpt lat="42.77793" lon="0.57813">
        <ele>1438.3</ele>
        <time>1970-01-01T00:11:04.000Z</time>
      </trkpt>
      <trkpt lat="42.77807" lon="0.57817">
        <ele>1438.1</ele>
        <time>1970-01-01T00:11:06.000Z</time>
      </trkpt>
      <trkpt lat="42.77814" lon="0.5782">
        <ele>1435.9</ele>
        <time>1970-01-01T00:11:07.000Z</time>
      </trkpt>
      <trkpt lat="42.7782" lon="0.57825">
        <ele>1435.8</ele>
        <time>1970-01-01T00:11:08.000Z</time>
      </trkpt>
      <trkpt lat="42.77828" lon="0.57838">
        <ele>1434.2</ele>
        <time>1970-01-01T00:11:10.000Z</time>
      </trkpt>
      <trkpt lat="42.77832" lon="0.57833">
        <ele>1432.8</ele>
        <time>1970-01-01T00:11:12.000Z</time>
      </trkpt>
      <trkpt lat="42.77832" lon="0.57827">
        <ele>1432.1</ele>
        <time>1970-01-01T00:11:13.000Z</time>
      </trkpt>
      <trkpt lat="42.77833" lon="0.57828">
        <ele>1431</ele>
        <time>1970-01-01T00:11:14.000Z</time>
      </trkpt>
      <trkpt lat="42.77833" lon="0.57826">
        <ele>1432</ele>
        <time>1970-01-01T00:11:15.000Z</time>
      </trkpt>
      <trkpt lat="42.7783" lon="0.57826">
        <ele>1432</ele>
        <time>1970-01-01T00:11:17.000Z</time>
      </trkpt>
      <trkpt lat="42.77827" lon="0.57831">
        <ele>1433.3</ele>
        <time>1970-01-01T00:11:19.000Z</time>
      </trkpt>
      <trkpt lat="42.77835" lon="0.5783">
        <ele>1431.2</ele>
        <time>1970-01-01T00:11:20.000Z</time>
      </trkpt>
      <trkpt lat="42.77844" lon="0.57823">
        <ele>1427.4</ele>
        <time>1970-01-01T00:11:21.000Z</time>
      </trkpt>
      <trkpt lat="42.77854" lon="0.57804">
        <ele>1423.6</ele>
        <time>1970-01-01T00:11:23.000Z</time>
      </trkpt>
      <trkpt lat="42.77853" lon="0.57794">
        <ele>1422.9</ele>
        <time>1970-01-01T00:11:24.000Z</time>
      </trkpt>
      <trkpt lat="42.77851" lon="0.57783">
        <ele>1423.1</ele>
        <time>1970-01-01T00:11:25.000Z</time>
      </trkpt>
      <trkpt lat="42.7785" lon="0.57771">
        <ele>1421.6</ele>
        <time>1970-01-01T00:11:27.000Z</time>
      </trkpt>
      <trkpt lat="42.7785" lon="0.57783">
        <ele>1423</ele>
        <time>1970-01-01T00:11:28.000Z</time>
      </trkpt>
      <trkpt lat="42.77859" lon="0.5777">
        <ele>1418.8</ele>
        <time>1970-01-01T00:11:30.000Z</time>
      </trkpt>
      <trkpt lat="42.77866" lon="0.57745">
        <ele>1413.4</ele>
        <time>1970-01-01T00:11:32.000Z</time>
      </trkpt>
      <trkpt lat="42.77866" lon="0.57714">
        <ele>1408.5</ele>
        <time>1970-01-01T00:11:34.000Z</time>
      </trkpt>
      <trkpt lat="42.77866" lon="0.57698">
        <ele>1405.1</ele>
        <time>1970-01-01T00:11:35.000Z</time>
      </trkpt>
      <trkpt lat="42.77865" lon="0.57686">
        <ele>1402.1</ele>
        <time>1970-01-01T00:11:36.000Z</time>
      </trkpt>
      <trkpt lat="42.77868" lon="0.57678">
        <ele>1400.4</ele>
        <time>1970-01-01T00:11:37.000Z</time>
      </trkpt>
      <trkpt lat="42.77872" lon="0.57674">
        <ele>1397.9</ele>
        <time>1970-01-01T00:11:38.000Z</time>
      </trkpt>
      <trkpt lat="42.77877" lon="0.57673">
        <ele>1396.6</ele>
        <time>1970-01-01T00:11:39.000Z</time>
      </trkpt>
      <trkpt lat="42.77879" lon="0.57669">
        <ele>1395.6</ele>
        <time>1970-01-01T00:11:41.000Z</time>
      </trkpt>
      <trkpt lat="42.77879" lon="0.57662">
        <ele>1394.6</ele>
        <time>1970-01-01T00:11:42.000Z</time>
      </trkpt>
      <trkpt lat="42.7788" lon="0.57645">
        <ele>1390.5</ele>
        <time>1970-01-01T00:11:44.000Z</time>
      </trkpt>
      <trkpt lat="42.7788" lon="0.57637">
        <ele>1388.4</ele>
        <time>1970-01-01T00:11:45.000Z</time>
      </trkpt>
      <trkpt lat="42.77879" lon="0.57632">
        <ele>1387.4</ele>
        <time>1970-01-01T00:11:46.000Z</time>
      </trkpt>
      <trkpt lat="42.77882" lon="0.57637">
        <ele>1387.7</ele>
        <time>1970-01-01T00:11:48.000Z</time>
      </trkpt>
      <trkpt lat="42.7789" lon="0.57622">
        <ele>1381.5</ele>
        <time>1970-01-01T00:11:49.000Z</time>
      </trkpt>
      <trkpt lat="42.77898" lon="0.57616">
        <ele>1378.7</ele>
        <time>1970-01-01T00:11:50.000Z</time>
      </trkpt>
      <trkpt lat="42.7791" lon="0.57607">
        <ele>1373.1</ele>
        <time>1970-01-01T00:11:52.000Z</time>
      </trkpt>
      <trkpt lat="42.77915" lon="0.57605">
        <ele>1369.7</ele>
        <time>1970-01-01T00:11:54.000Z</time>
      </trkpt>
      <trkpt lat="42.7792" lon="0.57605">
        <ele>1368.4</ele>
        <time>1970-01-01T00:11:55.000Z</time>
      </trkpt>
      <trkpt lat="42.77925" lon="0.57607">
        <ele>1367.1</ele>
        <time>1970-01-01T00:11:56.000Z</time>
      </trkpt>
      <trkpt lat="42.7793" lon="0.5761">
        <ele>1365.3</ele>
        <time>1970-01-01T00:11:57.000Z</time>
      </trkpt>
      <trkpt lat="42.77939" lon="0.57611">
        <ele>1362.2</ele>
        <time>1970-01-01T00:11:59.000Z</time>
      </trkpt>
      <trkpt lat="42.77931" lon="0.57608">
        <ele>1365.2</ele>
        <time>1970-01-01T00:12:00.000Z</time>
      </trkpt>
      <trkpt lat="42.77942" lon="0.57613">
        <ele>1360.6</ele>
        <time>1970-01-01T00:12:02.000Z</time>
      </trkpt>
      <trkpt lat="42.77949" lon="0.57618">
        <ele>1359</ele>
        <time>1970-01-01T00:12:03.000Z</time>
      </trkpt>
      <trkpt lat="42.77961" lon="0.57626">
        <ele>1353.5</ele>
        <time>1970-01-01T00:12:05.000Z</time>
      </trkpt>
      <trkpt lat="42.77967" lon="0.57629">
        <ele>1350.7</ele>
        <time>1970-01-01T00:12:06.000Z</time>
      </trkpt>
      <trkpt lat="42.77969" lon="0.57632">
        <ele>1349.5</ele>
        <time>1970-01-01T00:12:07.000Z</time>
      </trkpt>
      <trkpt lat="42.77969" lon="0.57633">
        <ele>1349.5</ele>
        <time>1970-01-01T00:12:08.000Z</time>
      </trkpt>
      <trkpt lat="42.77969" lon="0.57634">
        <ele>1349.4</ele>
        <time>1970-01-01T00:12:09.000Z</time>
      </trkpt>
      <trkpt lat="42.77969" lon="0.57635">
        <ele>1349.4</ele>
        <time>1970-01-01T00:12:10.000Z</time>
      </trkpt>
      <trkpt lat="42.77972" lon="0.57635">
        <ele>1347.6</ele>
        <time>1970-01-01T00:12:12.000Z</time>
      </trkpt>
      <trkpt lat="42.77974" lon="0.5763">
        <ele>1347.1</ele>
        <time>1970-01-01T00:12:13.000Z</time>
      </trkpt>
      <trkpt lat="42.77975" lon="0.57625">
        <ele>1346.6</ele>
        <time>1970-01-01T00:12:14.000Z</time>
      </trkpt>
      <trkpt lat="42.77976" lon="0.57618">
        <ele>1343.9</ele>
        <time>1970-01-01T00:12:15.000Z</time>
      </trkpt>
      <trkpt lat="42.77978" lon="0.57615">
        <ele>1343.9</ele>
        <time>1970-01-01T00:12:16.000Z</time>
      </trkpt>
      <trkpt lat="42.7798" lon="0.57613">
        <ele>1341.7</ele>
        <time>1970-01-01T00:12:18.000Z</time>
      </trkpt>
      <trkpt lat="42.77981" lon="0.57613">
        <ele>1340</ele>
        <time>1970-01-01T00:12:19.000Z</time>
      </trkpt>
      <trkpt lat="42.77983" lon="0.57613">
        <ele>1340</ele>
        <time>1970-01-01T00:12:20.000Z</time>
      </trkpt>
      <trkpt lat="42.77984" lon="0.57608">
        <ele>1338</ele>
        <time>1970-01-01T00:12:22.000Z</time>
      </trkpt>
      <trkpt lat="42.77987" lon="0.57606">
        <ele>1337.9</ele>
        <time>1970-01-01T00:12:24.000Z</time>
      </trkpt>
      <trkpt lat="42.77989" lon="0.57603">
        <ele>1336</ele>
        <time>1970-01-01T00:12:25.000Z</time>
      </trkpt>
      <trkpt lat="42.77991" lon="0.576">
        <ele>1334</ele>
        <time>1970-01-01T00:12:26.000Z</time>
      </trkpt>
      <trkpt lat="42.77994" lon="0.57597">
        <ele>1332.4</ele>
        <time>1970-01-01T00:12:28.000Z</time>
      </trkpt>
      <trkpt lat="42.78005" lon="0.57587">
        <ele>1326.3</ele>
        <time>1970-01-01T00:12:30.000Z</time>
      </trkpt>
      <trkpt lat="42.78009" lon="0.57584">
        <ele>1324.6</ele>
        <time>1970-01-01T00:12:32.000Z</time>
      </trkpt>
      <trkpt lat="42.7801" lon="0.5758">
        <ele>1322.8</ele>
        <time>1970-01-01T00:12:33.000Z</time>
      </trkpt>
      <trkpt lat="42.7801" lon="0.57578">
        <ele>1322.6</ele>
        <time>1970-01-01T00:12:34.000Z</time>
      </trkpt>
      <trkpt lat="42.7801" lon="0.57575">
        <ele>1322.4</ele>
        <time>1970-01-01T00:12:36.000Z</time>
      </trkpt>
      <trkpt lat="42.78011" lon="0.57572">
        <ele>1322.4</ele>
        <time>1970-01-01T00:12:37.000Z</time>
      </trkpt>
      <trkpt lat="42.78011" lon="0.5757">
        <ele>1322.2</ele>
        <time>1970-01-01T00:12:38.000Z</time>
      </trkpt>
      <trkpt lat="42.78011" lon="0.57567">
        <ele>1322.2</ele>
        <time>1970-01-01T00:15:58.000Z</time>
      </trkpt>
      <trkpt lat="42.78011" lon="0.57564">
        <ele>1321.9</ele>
        <time>1970-01-01T00:15:59.000Z</time>
      </trkpt>
      <trkpt lat="42.78011" lon="0.57562">
        <ele>1321.7</ele>
        <time>1970-01-01T00:16:00.000Z</time>
      </trkpt>
      <trkpt lat="42.78017" lon="0.57563">
        <ele>1319.3</ele>
        <time>1970-01-01T00:16:02.000Z</time>
      </trkpt>
      <trkpt lat="42.78021" lon="0.57565">
        <ele>1317.8</ele>
        <time>1970-01-01T00:16:03.000Z</time>
      </trkpt>
      <trkpt lat="42.78029" lon="0.57562">
        <ele>1313</ele>
        <time>1970-01-01T00:16:05.000Z</time>
      </trkpt>
      <trkpt lat="42.78031" lon="0.57558">
        <ele>1313</ele>
        <time>1970-01-01T00:16:06.000Z</time>
      </trkpt>
      <trkpt lat="42.78032" lon="0.57555">
        <ele>1311.5</ele>
        <time>1970-01-01T00:16:07.000Z</time>
      </trkpt>
      <trkpt lat="42.78035" lon="0.57552">
        <ele>1310.1</ele>
        <time>1970-01-01T00:16:09.000Z</time>
      </trkpt>
      <trkpt lat="42.78043" lon="0.57552">
        <ele>1307.6</ele>
        <time>1970-01-01T00:16:10.000Z</time>
      </trkpt>
      <trkpt lat="42.78051" lon="0.57554">
        <ele>1303</ele>
        <time>1970-01-01T00:16:12.000Z</time>
      </trkpt>
      <trkpt lat="42.78056" lon="0.57555">
        <ele>1301.4</ele>
        <time>1970-01-01T00:16:13.000Z</time>
      </trkpt>
      <trkpt lat="42.78062" lon="0.57556">
        <ele>1298.3</ele>
        <time>1970-01-01T00:16:14.000Z</time>
      </trkpt>
      <trkpt lat="42.78062" lon="0.57554">
        <ele>1298.3</ele>
        <time>1970-01-01T00:16:15.000Z</time>
      </trkpt>
      <trkpt lat="42.7806" lon="0.57552">
        <ele>1299.9</ele>
        <time>1970-01-01T00:16:17.000Z</time>
      </trkpt>
      <trkpt lat="42.78061" lon="0.57551">
        <ele>1298.5</ele>
        <time>1970-01-01T00:16:18.000Z</time>
      </trkpt>
      <trkpt lat="42.78063" lon="0.57551">
        <ele>1297.1</ele>
        <time>1970-01-01T00:16:19.000Z</time>
      </trkpt>
      <trkpt lat="42.78065" lon="0.5755">
        <ele>1297</ele>
        <time>1970-01-01T00:16:20.000Z</time>
      </trkpt>
      <trkpt lat="42.78066" lon="0.57548">
        <ele>1297.2</ele>
        <time>1970-01-01T00:16:21.000Z</time>
      </trkpt>
      <trkpt lat="42.78067" lon="0.57549">
        <ele>1295.8</ele>
        <time>1970-01-01T00:16:22.000Z</time>
      </trkpt>
      <trkpt lat="42.78067" lon="0.57551">
        <ele>1295.6</ele>
        <time>1970-01-01T00:16:23.000Z</time>
      </trkpt>
      <trkpt lat="42.78069" lon="0.57553">
        <ele>1295.6</ele>
        <time>1970-01-01T00:16:25.000Z</time>
      </trkpt>
      <trkpt lat="42.78077" lon="0.57556">
        <ele>1290.9</ele>
        <time>1970-01-01T00:16:27.000Z</time>
      </trkpt>
      <trkpt lat="42.78086" lon="0.5756">
        <ele>1286.1</ele>
        <time>1970-01-01T00:16:28.000Z</time>
      </trkpt>
      <trkpt lat="42.78098" lon="0.57565">
        <ele>1281.7</ele>
        <time>1970-01-01T00:16:29.000Z</time>
      </trkpt>
      <trkpt lat="42.7811" lon="0.5757">
        <ele>1275.9</ele>
        <time>1970-01-01T00:16:30.000Z</time>
      </trkpt>
      <trkpt lat="42.78118" lon="0.57566">
        <ele>1271.8</ele>
        <time>1970-01-01T00:16:31.000Z</time>
      </trkpt>
      <trkpt lat="42.78121" lon="0.57565">
        <ele>1270.4</ele>
        <time>1970-01-01T00:16:32.000Z</time>
      </trkpt>
      <trkpt lat="42.78127" lon="0.57568">
        <ele>1267.6</ele>
        <time>1970-01-01T00:16:34.000Z</time>
      </trkpt>
      <trkpt lat="42.78131" lon="0.57567">
        <ele>1266.3</ele>
        <time>1970-01-01T00:16:35.000Z</time>
      </trkpt>
      <trkpt lat="42.78137" lon="0.57571">
        <ele>1263.5</ele>
        <time>1970-01-01T00:16:37.000Z</time>
      </trkpt>
      <trkpt lat="42.7815" lon="0.57577">
        <ele>1257.7</ele>
        <time>1970-01-01T00:16:39.000Z</time>
      </trkpt>
      <trkpt lat="42.7816" lon="0.57581">
        <ele>1253.7</ele>
        <time>1970-01-01T00:16:41.000Z</time>
      </trkpt>
      <trkpt lat="42.78161" lon="0.5758">
        <ele>1252.1</ele>
        <time>1970-01-01T00:16:42.000Z</time>
      </trkpt>
      <trkpt lat="42.78153" lon="0.57581">
        <ele>1256.2</ele>
        <time>1970-01-01T00:16:44.000Z</time>
      </trkpt>
      <trkpt lat="42.78151" lon="0.57581">
        <ele>1257.5</ele>
        <time>1970-01-01T00:16:45.000Z</time>
      </trkpt>
      <trkpt lat="42.78151" lon="0.57582">
        <ele>1257.4</ele>
        <time>1970-01-01T00:16:46.000Z</time>
      </trkpt>
      <trkpt lat="42.78152" lon="0.57581">
        <ele>1256.1</ele>
        <time>1970-01-01T00:16:48.000Z</time>
      </trkpt>
      <trkpt lat="42.78154" lon="0.57581">
        <ele>1256.1</ele>
        <time>1970-01-01T00:16:49.000Z</time>
      </trkpt>
      <trkpt lat="42.78156" lon="0.57581">
        <ele>1254.8</ele>
        <time>1970-01-01T00:16:50.000Z</time>
      </trkpt>
      <trkpt lat="42.78158" lon="0.57581">
        <ele>1253.4</ele>
        <time>1970-01-01T00:16:51.000Z</time>
      </trkpt>
      <trkpt lat="42.78161" lon="0.57581">
        <ele>1251.9</ele>
        <time>1970-01-01T00:16:53.000Z</time>
      </trkpt>
      <trkpt lat="42.78164" lon="0.57582">
        <ele>1250.2</ele>
        <time>1970-01-01T00:16:54.000Z</time>
      </trkpt>
      <trkpt lat="42.78167" lon="0.57582">
        <ele>1250.1</ele>
        <time>1970-01-01T00:16:55.000Z</time>
      </trkpt>
      <trkpt lat="42.78173" lon="0.57583">
        <ele>1246.7</ele>
        <time>1970-01-01T00:16:56.000Z</time>
      </trkpt>
      <trkpt lat="42.78179" lon="0.57581">
        <ele>1243.7</ele>
        <time>1970-01-01T00:16:58.000Z</time>
      </trkpt>
      <trkpt lat="42.78184" lon="0.5758">
        <ele>1240.8</ele>
        <time>1970-01-01T00:16:59.000Z</time>
      </trkpt>
      <trkpt lat="42.78189" lon="0.57583">
        <ele>1237.5</ele>
        <time>1970-01-01T00:17:00.000Z</time>
      </trkpt>
      <trkpt lat="42.78194" lon="0.57585">
        <ele>1235.6</ele>
        <time>1970-01-01T00:17:02.000Z</time>
      </trkpt>
      <trkpt lat="42.78197" lon="0.57587">
        <ele>1233.8</ele>
        <time>1970-01-01T00:17:03.000Z</time>
      </trkpt>
      <trkpt lat="42.78198" lon="0.57587">
        <ele>1233.8</ele>
        <time>1970-01-01T00:17:04.000Z</time>
      </trkpt>
      <trkpt lat="42.782" lon="0.57591">
        <ele>1232</ele>
        <time>1970-01-01T00:17:05.000Z</time>
      </trkpt>
      <trkpt lat="42.78214" lon="0.57595">
        <ele>1226</ele>
        <time>1970-01-01T00:17:07.000Z</time>
      </trkpt>
      <trkpt lat="42.78213" lon="0.57601">
        <ele>1225.4</ele>
        <time>1970-01-01T00:17:08.000Z</time>
      </trkpt>
      <trkpt lat="42.78214" lon="0.57599">
        <ele>1225.6</ele>
        <time>1970-01-01T00:17:09.000Z</time>
      </trkpt>
      <trkpt lat="42.78212" lon="0.57596">
        <ele>1225.9</ele>
        <time>1970-01-01T00:17:10.000Z</time>
      </trkpt>
      <trkpt lat="42.7821" lon="0.57592">
        <ele>1227.5</ele>
        <time>1970-01-01T00:17:11.000Z</time>
      </trkpt>
      <trkpt lat="42.78209" lon="0.57589">
        <ele>1227.5</ele>
        <time>1970-01-01T00:17:12.000Z</time>
      </trkpt>
      <trkpt lat="42.78223" lon="0.57597">
        <ele>1220.7</ele>
        <time>1970-01-01T00:17:14.000Z</time>
      </trkpt>
      <trkpt lat="42.78238" lon="0.57613">
        <ele>1211.7</ele>
        <time>1970-01-01T00:17:16.000Z</time>
      </trkpt>
      <trkpt lat="42.78247" lon="0.57619">
        <ele>1205.9</ele>
        <time>1970-01-01T00:17:17.000Z</time>
      </trkpt>
      <trkpt lat="42.78254" lon="0.57626">
        <ele>1202</ele>
        <time>1970-01-01T00:17:18.000Z</time>
      </trkpt>
      <trkpt lat="42.78259" lon="0.57628">
        <ele>1198.3</ele>
        <time>1970-01-01T00:17:20.000Z</time>
      </trkpt>
      <trkpt lat="42.78265" lon="0.5763">
        <ele>1195.4</ele>
        <time>1970-01-01T00:17:21.000Z</time>
      </trkpt>
      <trkpt lat="42.78269" lon="0.5763">
        <ele>1193.9</ele>
        <time>1970-01-01T00:17:22.000Z</time>
      </trkpt>
      <trkpt lat="42.78279" lon="0.57632">
        <ele>1188.8</ele>
        <time>1970-01-01T00:17:23.000Z</time>
      </trkpt>
      <trkpt lat="42.78284" lon="0.57635">
        <ele>1185.1</ele>
        <time>1970-01-01T00:17:25.000Z</time>
      </trkpt>
      <trkpt lat="42.78286" lon="0.57636">
        <ele>1185</ele>
        <time>1970-01-01T00:17:26.000Z</time>
      </trkpt>
      <trkpt lat="42.78287" lon="0.57635">
        <ele>1183.9</ele>
        <time>1970-01-01T00:17:27.000Z</time>
      </trkpt>
      <trkpt lat="42.78291" lon="0.57636">
        <ele>1182.1</ele>
        <time>1970-01-01T00:17:29.000Z</time>
      </trkpt>
      <trkpt lat="42.78292" lon="0.57637">
        <ele>1182.1</ele>
        <time>1970-01-01T00:17:30.000Z</time>
      </trkpt>
      <trkpt lat="42.78294" lon="0.57637">
        <ele>1180.7</ele>
        <time>1970-01-01T00:17:32.000Z</time>
      </trkpt>
      <trkpt lat="42.78295" lon="0.57638">
        <ele>1180.7</ele>
        <time>1970-01-01T00:17:33.000Z</time>
      </trkpt>
      <trkpt lat="42.78296" lon="0.57639">
        <ele>1180.6</ele>
        <time>1970-01-01T00:17:34.000Z</time>
      </trkpt>
      <trkpt lat="42.78297" lon="0.5764">
        <ele>1178.8</ele>
        <time>1970-01-01T00:17:35.000Z</time>
      </trkpt>
      <trkpt lat="42.78299" lon="0.57642">
        <ele>1178.8</ele>
        <time>1970-01-01T00:17:36.000Z</time>
      </trkpt>
      <trkpt lat="42.78301" lon="0.57644">
        <ele>1177.2</ele>
        <time>1970-01-01T00:17:38.000Z</time>
      </trkpt>
      <trkpt lat="42.78304" lon="0.57645">
        <ele>1175.1</ele>
        <time>1970-01-01T00:17:39.000Z</time>
      </trkpt>
      <trkpt lat="42.78305" lon="0.57645">
        <ele>1175.1</ele>
        <time>1970-01-01T00:17:40.000Z</time>
      </trkpt>
      <trkpt lat="42.78307" lon="0.57645">
        <ele>1173.3</ele>
        <time>1970-01-01T00:17:41.000Z</time>
      </trkpt>
      <trkpt lat="42.78308" lon="0.57646">
        <ele>1173.3</ele>
        <time>1970-01-01T00:17:42.000Z</time>
      </trkpt>
      <trkpt lat="42.78311" lon="0.57648">
        <ele>1171.6</ele>
        <time>1970-01-01T00:17:43.000Z</time>
      </trkpt>
      <trkpt lat="42.78312" lon="0.57648">
        <ele>1169.6</ele>
        <time>1970-01-01T00:17:44.000Z</time>
      </trkpt>
      <trkpt lat="42.78316" lon="0.57649">
        <ele>1168.2</ele>
        <time>1970-01-01T00:17:46.000Z</time>
      </trkpt>
      <trkpt lat="42.78317" lon="0.57649">
        <ele>1168.1</ele>
        <time>1970-01-01T00:17:47.000Z</time>
      </trkpt>
      <trkpt lat="42.7832" lon="0.5765">
        <ele>1166.7</ele>
        <time>1970-01-01T00:17:48.000Z</time>
      </trkpt>
      <trkpt lat="42.78325" lon="0.57653">
        <ele>1163.3</ele>
        <time>1970-01-01T00:17:50.000Z</time>
      </trkpt>
      <trkpt lat="42.78329" lon="0.57656">
        <ele>1161.6</ele>
        <time>1970-01-01T00:17:51.000Z</time>
      </trkpt>
      <trkpt lat="42.78331" lon="0.57658">
        <ele>1159.3</ele>
        <time>1970-01-01T00:17:52.000Z</time>
      </trkpt>
      <trkpt lat="42.78334" lon="0.5766">
        <ele>1157.5</ele>
        <time>1970-01-01T00:17:54.000Z</time>
      </trkpt>
      <trkpt lat="42.78336" lon="0.57662">
        <ele>1156.9</ele>
        <time>1970-01-01T00:17:56.000Z</time>
      </trkpt>
      <trkpt lat="42.78336" lon="0.57662">
        <ele>1156.9</ele>
        <time>1970-01-01T00:17:57.000Z</time>
      </trkpt>
      <trkpt lat="42.78337" lon="0.57662">
        <ele>1156.8</ele>
        <time>1970-01-01T00:17:58.000Z</time>
      </trkpt>
      <trkpt lat="42.78338" lon="0.57663">
        <ele>1155.2</ele>
        <time>1970-01-01T00:18:00.000Z</time>
      </trkpt>
      <trkpt lat="42.78338" lon="0.57663">
        <ele>1155.1</ele>
        <time>1970-01-01T00:18:01.000Z</time>
      </trkpt>
      <trkpt lat="42.78338" lon="0.57664">
        <ele>1155.1</ele>
        <time>1970-01-01T00:18:03.000Z</time>
      </trkpt>
      <trkpt lat="42.78342" lon="0.5767">
        <ele>1152.3</ele>
        <time>1970-01-01T00:18:05.000Z</time>
      </trkpt>
      <trkpt lat="42.78343" lon="0.57672">
        <ele>1152.2</ele>
        <time>1970-01-01T00:18:07.000Z</time>
      </trkpt>
      <trkpt lat="42.78344" lon="0.57672">
        <ele>1150.7</ele>
        <time>1970-01-01T00:18:09.000Z</time>
      </trkpt>
      <trkpt lat="42.78344" lon="0.57672">
        <ele>1150.7</ele>
        <time>1970-01-01T00:18:10.000Z</time>
      </trkpt>
      <trkpt lat="42.78345" lon="0.57672">
        <ele>1150.6</ele>
        <time>1970-01-01T00:18:11.000Z</time>
      </trkpt>
      <trkpt lat="42.78345" lon="0.57672">
        <ele>1150.6</ele>
        <time>1970-01-01T00:18:13.000Z</time>
      </trkpt>
      <trkpt lat="42.78346" lon="0.57672">
        <ele>1150.6</ele>
        <time>1970-01-01T00:18:18.000Z</time>
      </trkpt>
      <trkpt lat="42.78346" lon="0.57673">
        <ele>1150.5</ele>
        <time>1970-01-01T00:18:20.000Z</time>
      </trkpt>
      <trkpt lat="42.78347" lon="0.57673">
        <ele>1149</ele>
        <time>1970-01-01T00:18:21.000Z</time>
      </trkpt>
      <trkpt lat="42.78348" lon="0.57673">
        <ele>1149</ele>
        <time>1970-01-01T00:18:23.000Z</time>
      </trkpt>
      <trkpt lat="42.78348" lon="0.57673">
        <ele>1149</ele>
        <time>1970-01-01T00:18:25.000Z</time>
      </trkpt>
      <trkpt lat="42.78349" lon="0.57673">
        <ele>1148.9</ele>
        <time>1970-01-01T00:18:26.000Z</time>
      </trkpt>
      <trkpt lat="42.78349" lon="0.57673">
        <ele>1148.9</ele>
        <time>1970-01-01T00:18:27.000Z</time>
      </trkpt>
      <trkpt lat="42.7835" lon="0.57673">
        <ele>1148.9</ele>
        <time>1970-01-01T00:18:29.000Z</time>
      </trkpt>
      <trkpt lat="42.7835" lon="0.57673">
        <ele>1147.3</ele>
        <time>1970-01-01T00:18:30.000Z</time>
      </trkpt>
      <trkpt lat="42.78351" lon="0.57673">
        <ele>1147.2</ele>
        <time>1970-01-01T00:18:31.000Z</time>
      </trkpt>
      <trkpt lat="42.78351" lon="0.57673">
        <ele>1147.2</ele>
        <time>1970-01-01T00:20:55.000Z</time>
      </trkpt>
      <trkpt lat="42.78352" lon="0.57673">
        <ele>1147.2</ele>
        <time>1970-01-01T00:20:56.000Z</time>
      </trkpt>
      <trkpt lat="42.78352" lon="0.57673">
        <ele>1147.1</ele>
        <time>1970-01-01T00:20:57.000Z</time>
      </trkpt>
      <trkpt lat="42.78358" lon="0.57678">
        <ele>1143.2</ele>
        <time>1970-01-01T00:20:59.000Z</time>
      </trkpt>
      <trkpt lat="42.78361" lon="0.57681">
        <ele>1140.9</ele>
        <time>1970-01-01T00:21:00.000Z</time>
      </trkpt>
      <trkpt lat="42.78367" lon="0.57689">
        <ele>1136.3</ele>
        <time>1970-01-01T00:21:01.000Z</time>
      </trkpt>
      <trkpt lat="42.78367" lon="0.57693">
        <ele>1135.4</ele>
        <time>1970-01-01T00:21:02.000Z</time>
      </trkpt>
      <trkpt lat="42.78375" lon="0.57695">
        <ele>1131.1</ele>
        <time>1970-01-01T00:21:03.000Z</time>
      </trkpt>
      <trkpt lat="42.78382" lon="0.57698">
        <ele>1127.5</ele>
        <time>1970-01-01T00:21:05.000Z</time>
      </trkpt>
      <trkpt lat="42.7839" lon="0.57696">
        <ele>1124.7</ele>
        <time>1970-01-01T00:21:06.000Z</time>
      </trkpt>
      <trkpt lat="42.78397" lon="0.57693">
        <ele>1121.1</ele>
        <time>1970-01-01T00:21:07.000Z</time>
      </trkpt>
      <trkpt lat="42.78404" lon="0.57689">
        <ele>1119.1</ele>
        <time>1970-01-01T00:21:08.000Z</time>
      </trkpt>
      <trkpt lat="42.7841" lon="0.57686">
        <ele>1117.2</ele>
        <time>1970-01-01T00:21:09.000Z</time>
      </trkpt>
      <trkpt lat="42.78416" lon="0.57687">
        <ele>1114.8</ele>
        <time>1970-01-01T00:21:10.000Z</time>
      </trkpt>
      <trkpt lat="42.78424" lon="0.57688">
        <ele>1109.9</ele>
        <time>1970-01-01T00:21:12.000Z</time>
      </trkpt>
      <trkpt lat="42.78433" lon="0.57681">
        <ele>1107.7</ele>
        <time>1970-01-01T00:21:14.000Z</time>
      </trkpt>
      <trkpt lat="42.78442" lon="0.5768">
        <ele>1103.7</ele>
        <time>1970-01-01T00:21:16.000Z</time>
      </trkpt>
      <trkpt lat="42.78445" lon="0.57681">
        <ele>1102.1</ele>
        <time>1970-01-01T00:21:17.000Z</time>
      </trkpt>
      <trkpt lat="42.78442" lon="0.57685">
        <ele>1102.8</ele>
        <time>1970-01-01T00:21:19.000Z</time>
      </trkpt>
      <trkpt lat="42.7844" lon="0.57689">
        <ele>1103.3</ele>
        <time>1970-01-01T00:21:20.000Z</time>
      </trkpt>
      <trkpt lat="42.7844" lon="0.5769">
        <ele>1103.2</ele>
        <time>1970-01-01T00:21:21.000Z</time>
      </trkpt>
      <trkpt lat="42.78458" lon="0.57693">
        <ele>1094.2</ele>
        <time>1970-01-01T00:21:23.000Z</time>
      </trkpt>
      <trkpt lat="42.78465" lon="0.57697">
        <ele>1090.6</ele>
        <time>1970-01-01T00:21:24.000Z</time>
      </trkpt>
      <trkpt lat="42.78472" lon="0.57701">
        <ele>1086.6</ele>
        <time>1970-01-01T00:21:25.000Z</time>
      </trkpt>
      <trkpt lat="42.78475" lon="0.57707">
        <ele>1084</ele>
        <time>1970-01-01T00:21:27.000Z</time>
      </trkpt>
      <trkpt lat="42.78468" lon="0.57704">
        <ele>1088.1</ele>
        <time>1970-01-01T00:21:28.000Z</time>
      </trkpt>
      <trkpt lat="42.78475" lon="0.57701">
        <ele>1084.9</ele>
        <time>1970-01-01T00:21:29.000Z</time>
      </trkpt>
      <trkpt lat="42.78471" lon="0.57699">
        <ele>1087.4</ele>
        <time>1970-01-01T00:21:30.000Z</time>
      </trkpt>
      <trkpt lat="42.78475" lon="0.57701">
        <ele>1084.8</ele>
        <time>1970-01-01T00:21:32.000Z</time>
      </trkpt>
      <trkpt lat="42.78481" lon="0.57705">
        <ele>1080.8</ele>
        <time>1970-01-01T00:21:34.000Z</time>
      </trkpt>
      <trkpt lat="42.78488" lon="0.57708">
        <ele>1077.9</ele>
        <time>1970-01-01T00:21:35.000Z</time>
      </trkpt>
      <trkpt lat="42.78494" lon="0.57711">
        <ele>1073.9</ele>
        <time>1970-01-01T00:21:37.000Z</time>
      </trkpt>
      <trkpt lat="42.78485" lon="0.57704">
        <ele>1077.9</ele>
        <time>1970-01-01T00:21:38.000Z</time>
      </trkpt>
      <trkpt lat="42.78478" lon="0.57695">
        <ele>1084.9</ele>
        <time>1970-01-01T00:21:39.000Z</time>
      </trkpt>
      <trkpt lat="42.78475" lon="0.5769">
        <ele>1087.2</ele>
        <time>1970-01-01T00:21:40.000Z</time>
      </trkpt>
      <trkpt lat="42.78495" lon="0.57715">
        <ele>1071.3</ele>
        <time>1970-01-01T00:21:42.000Z</time>
      </trkpt>
      <trkpt lat="42.785" lon="0.5772">
        <ele>1068.7</ele>
        <time>1970-01-01T00:21:43.000Z</time>
      </trkpt>
      <trkpt lat="42.78522" lon="0.57735">
        <ele>1054.5</ele>
        <time>1970-01-01T00:21:45.000Z</time>
      </trkpt>
      <trkpt lat="42.78548" lon="0.57736">
        <ele>1040.9</ele>
        <time>1970-01-01T00:21:47.000Z</time>
      </trkpt>
      <trkpt lat="42.78559" lon="0.57735">
        <ele>1036</ele>
        <time>1970-01-01T00:21:48.000Z</time>
      </trkpt>
      <trkpt lat="42.78564" lon="0.57736">
        <ele>1032.8</ele>
        <time>1970-01-01T00:21:49.000Z</time>
      </trkpt>
      <trkpt lat="42.78563" lon="0.57741">
        <ele>1033.8</ele>
        <time>1970-01-01T00:21:51.000Z</time>
      </trkpt>
      <trkpt lat="42.78563" lon="0.57743">
        <ele>1033.3</ele>
        <time>1970-01-01T00:21:52.000Z</time>
      </trkpt>
      <trkpt lat="42.78576" lon="0.57745">
        <ele>1028</ele>
        <time>1970-01-01T00:21:54.000Z</time>
      </trkpt>
      <trkpt lat="42.78585" lon="0.57748">
        <ele>1023.2</ele>
        <time>1970-01-01T00:21:55.000Z</time>
      </trkpt>
      <trkpt lat="42.78597" lon="0.57757">
        <ele>1017.3</ele>
        <time>1970-01-01T00:21:57.000Z</time>
      </trkpt>
      <trkpt lat="42.78608" lon="0.57756">
        <ele>1013.6</ele>
        <time>1970-01-01T00:21:58.000Z</time>
      </trkpt>
      <trkpt lat="42.78617" lon="0.57755">
        <ele>1009.8</ele>
        <time>1970-01-01T00:22:00.000Z</time>
      </trkpt>
      <trkpt lat="42.78625" lon="0.5775">
        <ele>1006.7</ele>
        <time>1970-01-01T00:22:01.000Z</time>
      </trkpt>
      <trkpt lat="42.78642" lon="0.5774">
        <ele>1001.3</ele>
        <time>1970-01-01T00:22:03.000Z</time>
      </trkpt>
      <trkpt lat="42.7865" lon="0.5774">
        <ele>998.3</ele>
        <time>1970-01-01T00:22:04.000Z</time>
      </trkpt>
      <trkpt lat="42.78644" lon="0.57746">
        <ele>1000.1</ele>
        <time>1970-01-01T00:22:05.000Z</time>
      </trkpt>
      <trkpt lat="42.78635" lon="0.5775">
        <ele>1003.2</ele>
        <time>1970-01-01T00:22:07.000Z</time>
      </trkpt>
      <trkpt lat="42.7863" lon="0.57754">
        <ele>1005.3</ele>
        <time>1970-01-01T00:22:08.000Z</time>
      </trkpt>
      <trkpt lat="42.78647" lon="0.57727">
        <ele>999.2</ele>
        <time>1970-01-01T00:22:09.000Z</time>
      </trkpt>
      <trkpt lat="42.7865" lon="0.5772">
        <ele>998.3</ele>
        <time>1970-01-01T00:22:10.000Z</time>
      </trkpt>
      <trkpt lat="42.78663" lon="0.57688">
        <ele>993.7</ele>
        <time>1970-01-01T00:22:12.000Z</time>
      </trkpt>
      <trkpt lat="42.78669" lon="0.57673">
        <ele>990.3</ele>
        <time>1970-01-01T00:22:13.000Z</time>
      </trkpt>
      <trkpt lat="42.78674" lon="0.57659">
        <ele>987.9</ele>
        <time>1970-01-01T00:22:14.000Z</time>
      </trkpt>
      <trkpt lat="42.78679" lon="0.57647">
        <ele>984</ele>
        <time>1970-01-01T00:22:15.000Z</time>
      </trkpt>
      <trkpt lat="42.78684" lon="0.57637">
        <ele>980.8</ele>
        <time>1970-01-01T00:22:16.000Z</time>
      </trkpt>
      <trkpt lat="42.78688" lon="0.5763">
        <ele>978.7</ele>
        <time>1970-01-01T00:22:17.000Z</time>
      </trkpt>
      <trkpt lat="42.78691" lon="0.57628">
        <ele>977.4</ele>
        <time>1970-01-01T00:22:18.000Z</time>
      </trkpt>
      <trkpt lat="42.78696" lon="0.57627">
        <ele>976</ele>
        <time>1970-01-01T00:22:20.000Z</time>
      </trkpt>
      <trkpt lat="42.78697" lon="0.57627">
        <ele>974.1</ele>
        <time>1970-01-01T00:22:21.000Z</time>
      </trkpt>
      <trkpt lat="42.787" lon="0.57625">
        <ele>972.6</ele>
        <time>1970-01-01T00:22:23.000Z</time>
      </trkpt>
      <trkpt lat="42.78701" lon="0.57624">
        <ele>972.6</ele>
        <time>1970-01-01T00:22:24.000Z</time>
      </trkpt>
      <trkpt lat="42.78702" lon="0.57623">
        <ele>972.5</ele>
        <time>1970-01-01T00:22:25.000Z</time>
      </trkpt>
      <trkpt lat="42.78702" lon="0.5762">
        <ele>972</ele>
        <time>1970-01-01T00:22:27.000Z</time>
      </trkpt>
      <trkpt lat="42.78703" lon="0.57619">
        <ele>970.7</ele>
        <time>1970-01-01T00:22:28.000Z</time>
      </trkpt>
      <trkpt lat="42.78703" lon="0.57619">
        <ele>970.6</ele>
        <time>1970-01-01T00:22:29.000Z</time>
      </trkpt>
      <trkpt lat="42.78703" lon="0.57619">
        <ele>970.6</ele>
        <time>1970-01-01T00:22:30.000Z</time>
      </trkpt>
      <trkpt lat="42.78702" lon="0.57619">
        <ele>970.6</ele>
        <time>1970-01-01T00:22:31.000Z</time>
      </trkpt>
      <trkpt lat="42.78702" lon="0.57619">
        <ele>971.8</ele>
        <time>1970-01-01T00:22:32.000Z</time>
      </trkpt>
      <trkpt lat="42.78702" lon="0.57619">
        <ele>971.8</ele>
        <time>1970-01-01T00:22:33.000Z</time>
      </trkpt>
      <trkpt lat="42.78702" lon="0.57621">
        <ele>971.8</ele>
        <time>1970-01-01T00:22:34.000Z</time>
      </trkpt>
      <trkpt lat="42.78703" lon="0.57621">
        <ele>970.4</ele>
        <time>1970-01-01T00:22:35.000Z</time>
      </trkpt>
      <trkpt lat="42.78703" lon="0.57621">
        <ele>970.4</ele>
        <time>1970-01-01T00:22:37.000Z</time>
      </trkpt>
      <trkpt lat="42.78703" lon="0.57622">
        <ele>970.4</ele>
        <time>1970-01-01T00:22:38.000Z</time>
      </trkpt>
      <trkpt lat="42.78704" lon="0.57622">
        <ele>970.3</ele>
        <time>1970-01-01T00:22:39.000Z</time>
      </trkpt>
      <trkpt lat="42.78704" lon="0.57621">
        <ele>970.3</ele>
        <time>1970-01-01T00:22:40.000Z</time>
      </trkpt>
      <trkpt lat="42.78706" lon="0.57618">
        <ele>968.5</ele>
        <time>1970-01-01T00:22:42.000Z</time>
      </trkpt>
      <trkpt lat="42.78708" lon="0.57615">
        <ele>968.5</ele>
        <time>1970-01-01T00:22:43.000Z</time>
      </trkpt>
      <trkpt lat="42.78708" lon="0.57614">
        <ele>967.9</ele>
        <time>1970-01-01T00:22:44.000Z</time>
      </trkpt>
      <trkpt lat="42.78709" lon="0.57612">
        <ele>966.8</ele>
        <time>1970-01-01T00:22:45.000Z</time>
      </trkpt>
      <trkpt lat="42.7871" lon="0.57611">
        <ele>966.7</ele>
        <time>1970-01-01T00:22:46.000Z</time>
      </trkpt>
      <trkpt lat="42.7871" lon="0.5761">
        <ele>966.7</ele>
        <time>1970-01-01T00:22:47.000Z</time>
      </trkpt>
      <trkpt lat="42.78711" lon="0.57609">
        <ele>966.1</ele>
        <time>1970-01-01T00:22:48.000Z</time>
      </trkpt>
      <trkpt lat="42.78712" lon="0.57608">
        <ele>966.1</ele>
        <time>1970-01-01T00:22:49.000Z</time>
      </trkpt>
      <trkpt lat="42.78712" lon="0.57608">
        <ele>964.8</ele>
        <time>1970-01-01T00:22:50.000Z</time>
      </trkpt>
      <trkpt lat="42.78713" lon="0.57607">
        <ele>964.8</ele>
        <time>1970-01-01T00:22:52.000Z</time>
      </trkpt>
      <trkpt lat="42.78713" lon="0.57607">
        <ele>964.8</ele>
        <time>1970-01-01T00:22:53.000Z</time>
      </trkpt>
      <trkpt lat="42.78714" lon="0.57606">
        <ele>964.7</ele>
        <time>1970-01-01T00:22:54.000Z</time>
      </trkpt>
      <trkpt lat="42.78714" lon="0.57606">
        <ele>964.7</ele>
        <time>1970-01-01T00:22:56.000Z</time>
      </trkpt>
      <trkpt lat="42.78715" lon="0.57606">
        <ele>964.7</ele>
        <time>1970-01-01T00:22:57.000Z</time>
      </trkpt>
      <trkpt lat="42.78715" lon="0.57607">
        <ele>964.6</ele>
        <time>1970-01-01T00:22:58.000Z</time>
      </trkpt>
      <trkpt lat="42.78715" lon="0.57607">
        <ele>963.3</ele>
        <time>1970-01-01T00:22:59.000Z</time>
      </trkpt>
      <trkpt lat="42.78715" lon="0.57609">
        <ele>963.3</ele>
        <time>1970-01-01T00:23:00.000Z</time>
      </trkpt>
      <trkpt lat="42.78716" lon="0.5761">
        <ele>963.8</ele>
        <time>1970-01-01T00:23:01.000Z</time>
      </trkpt>
      <trkpt lat="42.78716" lon="0.57612">
        <ele>963.8</ele>
        <time>1970-01-01T00:23:02.000Z</time>
      </trkpt>
      <trkpt lat="42.78716" lon="0.57614">
        <ele>963.8</ele>
        <time>1970-01-01T00:23:04.000Z</time>
      </trkpt>
      <trkpt lat="42.78716" lon="0.57616">
        <ele>964.3</ele>
        <time>1970-01-01T00:23:05.000Z</time>
      </trkpt>
      <trkpt lat="42.78716" lon="0.57621">
        <ele>964.8</ele>
        <time>1970-01-01T00:23:07.000Z</time>
      </trkpt>
      <trkpt lat="42.78715" lon="0.57625">
        <ele>966.6</ele>
        <time>1970-01-01T00:23:08.000Z</time>
      </trkpt>
      <trkpt lat="42.78714" lon="0.5763">
        <ele>967.1</ele>
        <time>1970-01-01T00:23:09.000Z</time>
      </trkpt>
      <trkpt lat="42.78712" lon="0.57635">
        <ele>967.6</ele>
        <time>1970-01-01T00:23:11.000Z</time>
      </trkpt>
      <trkpt lat="42.7871" lon="0.57641">
        <ele>969.7</ele>
        <time>1970-01-01T00:23:12.000Z</time>
      </trkpt>
      <trkpt lat="42.78708" lon="0.57646">
        <ele>971.3</ele>
        <time>1970-01-01T00:23:14.000Z</time>
      </trkpt>
      <trkpt lat="42.78708" lon="0.57649">
        <ele>971.8</ele>
        <time>1970-01-01T00:23:15.000Z</time>
      </trkpt>
      <trkpt lat="42.78707" lon="0.57651">
        <ele>971.8</ele>
        <time>1970-01-01T00:23:17.000Z</time>
      </trkpt>
      <trkpt lat="42.78707" lon="0.57653">
        <ele>972.3</ele>
        <time>1970-01-01T00:23:18.000Z</time>
      </trkpt>
      <trkpt lat="42.78706" lon="0.57656">
        <ele>973.4</ele>
        <time>1970-01-01T00:23:20.000Z</time>
      </trkpt>
      <trkpt lat="42.78705" lon="0.57658">
        <ele>973.8</ele>
        <time>1970-01-01T00:23:22.000Z</time>
      </trkpt>
      <trkpt lat="42.78705" lon="0.57659">
        <ele>973.8</ele>
        <time>1970-01-01T00:23:24.000Z</time>
      </trkpt>
      <trkpt lat="42.78704" lon="0.5766">
        <ele>973.8</ele>
        <time>1970-01-01T00:23:25.000Z</time>
      </trkpt>
      <trkpt lat="42.78704" lon="0.5766">
        <ele>973.7</ele>
        <time>1970-01-01T00:23:26.000Z</time>
      </trkpt>
      <trkpt lat="42.78704" lon="0.5766">
        <ele>973.7</ele>
        <time>1970-01-01T00:23:27.000Z</time>
      </trkpt>
      <trkpt lat="42.78704" lon="0.5766">
        <ele>973.7</ele>
        <time>1970-01-01T00:23:28.000Z</time>
      </trkpt>
      <trkpt lat="42.78704" lon="0.5766">
        <ele>973.6</ele>
        <time>1970-01-01T00:23:30.000Z</time>
      </trkpt>
      <trkpt lat="42.78704" lon="0.5766">
        <ele>973.6</ele>
        <time>1970-01-01T00:23:31.000Z</time>
      </trkpt>
      <trkpt lat="42.78704" lon="0.5766">
        <ele>973.6</ele>
        <time>1970-01-01T00:23:33.000Z</time>
      </trkpt>
      <trkpt lat="42.78704" lon="0.57661">
        <ele>973.5</ele>
        <time>1970-01-01T00:23:35.000Z</time>
      </trkpt>
      <trkpt lat="42.78704" lon="0.57661">
        <ele>973.5</ele>
        <time>1970-01-01T00:23:36.000Z</time>
      </trkpt>
      <trkpt lat="42.78704" lon="0.57668">
        <ele>974.4</ele>
        <time>1970-01-01T00:23:41.000Z</time>
      </trkpt>
      <trkpt lat="42.78704" lon="0.57671">
        <ele>974.8</ele>
        <time>1970-01-01T00:23:42.000Z</time>
      </trkpt>
      <trkpt lat="42.78704" lon="0.57672">
        <ele>974.7</ele>
        <time>1970-01-01T00:23:43.000Z</time>
      </trkpt>
      <trkpt lat="42.78705" lon="0.57673">
        <ele>974.7</ele>
        <time>1970-01-01T00:23:45.000Z</time>
      </trkpt>
      <trkpt lat="42.78705" lon="0.57674">
        <ele>975.1</ele>
        <time>1970-01-01T00:23:47.000Z</time>
      </trkpt>
      <trkpt lat="42.78706" lon="0.57676">
        <ele>973.9</ele>
        <time>1970-01-01T00:23:49.000Z</time>
      </trkpt>
      <trkpt lat="42.78706" lon="0.57676">
        <ele>973.9</ele>
        <time>1970-01-01T00:23:50.000Z</time>
      </trkpt>
      <trkpt lat="42.78707" lon="0.57676">
        <ele>973.8</ele>
        <time>1970-01-01T00:23:51.000Z</time>
      </trkpt>
      <trkpt lat="42.78707" lon="0.57676">
        <ele>973.8</ele>
        <time>1970-01-01T00:23:52.000Z</time>
      </trkpt>
      <trkpt lat="42.78707" lon="0.57676">
        <ele>973.8</ele>
        <time>1970-01-01T00:23:53.000Z</time>
      </trkpt>
      <trkpt lat="42.78709" lon="0.57678">
        <ele>972.7</ele>
        <time>1970-01-01T00:24:01.000Z</time>
      </trkpt>
      <trkpt lat="42.78712" lon="0.57681">
        <ele>971.9</ele>
        <time>1970-01-01T00:24:03.000Z</time>
      </trkpt>
      <trkpt lat="42.78715" lon="0.57683">
        <ele>972.3</ele>
        <time>1970-01-01T00:24:04.000Z</time>
      </trkpt>
      <trkpt lat="42.78714" lon="0.57684">
        <ele>972.2</ele>
        <time>1970-01-01T00:24:06.000Z</time>
      </trkpt>
      <trkpt lat="42.78715" lon="0.57685">
        <ele>972.2</ele>
        <time>1970-01-01T00:24:07.000Z</time>
      </trkpt>
      <trkpt lat="42.78715" lon="0.57686">
        <ele>970.9</ele>
        <time>1970-01-01T00:24:08.000Z</time>
      </trkpt>
      <trkpt lat="42.78716" lon="0.57688">
        <ele>971.3</ele>
        <time>1970-01-01T00:24:09.000Z</time>
      </trkpt>
      <trkpt lat="42.78727" lon="0.57686">
        <ele>966.5</ele>
        <time>1970-01-01T00:24:11.000Z</time>
      </trkpt>
      <trkpt lat="42.78731" lon="0.57685">
        <ele>963.7</ele>
        <time>1970-01-01T00:24:13.000Z</time>
      </trkpt>
      <trkpt lat="42.78741" lon="0.57685">
        <ele>959.1</ele>
        <time>1970-01-01T00:24:14.000Z</time>
      </trkpt>
      <trkpt lat="42.78752" lon="0.57688">
        <ele>955</ele>
        <time>1970-01-01T00:24:15.000Z</time>
      </trkpt>
      <trkpt lat="42.78771" lon="0.57691">
        <ele>946.5</ele>
        <time>1970-01-01T00:24:17.000Z</time>
      </trkpt>
      <trkpt lat="42.78772" lon="0.57692">
        <ele>945.3</ele>
        <time>1970-01-01T00:24:18.000Z</time>
      </trkpt>
      <trkpt lat="42.78775" lon="0.57692">
        <ele>945.3</ele>
        <time>1970-01-01T00:24:20.000Z</time>
      </trkpt>
      <trkpt lat="42.78769" lon="0.5769">
        <ele>946.4</ele>
        <time>1970-01-01T00:24:22.000Z</time>
      </trkpt>
      <trkpt lat="42.78768" lon="0.5769">
        <ele>947.9</ele>
        <time>1970-01-01T00:24:24.000Z</time>
      </trkpt>
      <trkpt lat="42.78767" lon="0.5769">
        <ele>947.8</ele>
        <time>1970-01-01T00:24:25.000Z</time>
      </trkpt>
      <trkpt lat="42.78768" lon="0.57692">
        <ele>948.1</ele>
        <time>1970-01-01T00:24:27.000Z</time>
      </trkpt>
      <trkpt lat="42.7877" lon="0.57693">
        <ele>946.6</ele>
        <time>1970-01-01T00:24:28.000Z</time>
      </trkpt>
      <trkpt lat="42.78775" lon="0.57696">
        <ele>945.3</ele>
        <time>1970-01-01T00:24:30.000Z</time>
      </trkpt>
      <trkpt lat="42.78779" lon="0.57696">
        <ele>942.3</ele>
        <time>1970-01-01T00:24:32.000Z</time>
      </trkpt>
      <trkpt lat="42.7878" lon="0.57694">
        <ele>942</ele>
        <time>1970-01-01T00:24:33.000Z</time>
      </trkpt>
      <trkpt lat="42.78781" lon="0.57693">
        <ele>940.5</ele>
        <time>1970-01-01T00:24:34.000Z</time>
      </trkpt>
      <trkpt lat="42.78782" lon="0.57693">
        <ele>940.4</ele>
        <time>1970-01-01T00:24:35.000Z</time>
      </trkpt>
      <trkpt lat="42.78784" lon="0.57694">
        <ele>940.4</ele>
        <time>1970-01-01T00:24:36.000Z</time>
      </trkpt>
      <trkpt lat="42.7879" lon="0.57694">
        <ele>937.5</ele>
        <time>1970-01-01T00:24:38.000Z</time>
      </trkpt>
      <trkpt lat="42.78796" lon="0.57694">
        <ele>934.9</ele>
        <time>1970-01-01T00:24:40.000Z</time>
      </trkpt>
      <trkpt lat="42.78801" lon="0.57695">
        <ele>932.2</ele>
        <time>1970-01-01T00:24:41.000Z</time>
      </trkpt>
      <trkpt lat="42.78802" lon="0.57697">
        <ele>932.5</ele>
        <time>1970-01-01T00:24:43.000Z</time>
      </trkpt>
      <trkpt lat="42.78803" lon="0.57699">
        <ele>931.1</ele>
        <time>1970-01-01T00:24:44.000Z</time>
      </trkpt>
      <trkpt lat="42.78804" lon="0.577">
        <ele>931.4</ele>
        <time>1970-01-01T00:24:45.000Z</time>
      </trkpt>
      <trkpt lat="42.78806" lon="0.57704">
        <ele>931.3</ele>
        <time>1970-01-01T00:24:46.000Z</time>
      </trkpt>
      <trkpt lat="42.78806" lon="0.57705">
        <ele>930.2</ele>
        <time>1970-01-01T00:24:47.000Z</time>
      </trkpt>
      <trkpt lat="42.78814" lon="0.57708">
        <ele>927.7</ele>
        <time>1970-01-01T00:24:48.000Z</time>
      </trkpt>
      <trkpt lat="42.78821" lon="0.5771">
        <ele>925.2</ele>
        <time>1970-01-01T00:24:51.000Z</time>
      </trkpt>
      <trkpt lat="42.78827" lon="0.57713">
        <ele>922.8</ele>
        <time>1970-01-01T00:24:52.000Z</time>
      </trkpt>
      <trkpt lat="42.78834" lon="0.57715">
        <ele>920.2</ele>
        <time>1970-01-01T00:24:53.000Z</time>
      </trkpt>
      <trkpt lat="42.78837" lon="0.57716">
        <ele>918.8</ele>
        <time>1970-01-01T00:24:55.000Z</time>
      </trkpt>
      <trkpt lat="42.78839" lon="0.57717">
        <ele>917.5</ele>
        <time>1970-01-01T00:24:56.000Z</time>
      </trkpt>
      <trkpt lat="42.7884" lon="0.57718">
        <ele>917.5</ele>
        <time>1970-01-01T00:24:57.000Z</time>
      </trkpt>
      <trkpt lat="42.7884" lon="0.57717">
        <ele>917.4</ele>
        <time>1970-01-01T00:24:59.000Z</time>
      </trkpt>
      <trkpt lat="42.7884" lon="0.57718">
        <ele>917.4</ele>
        <time>1970-01-01T00:25:00.000Z</time>
      </trkpt>
      <trkpt lat="42.7884" lon="0.57719">
        <ele>917.4</ele>
        <time>1970-01-01T00:25:02.000Z</time>
      </trkpt>
      <trkpt lat="42.78839" lon="0.57718">
        <ele>917.3</ele>
        <time>1970-01-01T00:25:04.000Z</time>
      </trkpt>
      <trkpt lat="42.78838" lon="0.57717">
        <ele>917.1</ele>
        <time>1970-01-01T00:25:06.000Z</time>
      </trkpt>
      <trkpt lat="42.78838" lon="0.57717">
        <ele>917.1</ele>
        <time>1970-01-01T00:25:07.000Z</time>
      </trkpt>
      <trkpt lat="42.78838" lon="0.57717">
        <ele>918.6</ele>
        <time>1970-01-01T00:25:08.000Z</time>
      </trkpt>
      <trkpt lat="42.78837" lon="0.57717">
        <ele>918.4</ele>
        <time>1970-01-01T00:25:09.000Z</time>
      </trkpt>
      <trkpt lat="42.78837" lon="0.57716">
        <ele>918.4</ele>
        <time>1970-01-01T00:25:11.000Z</time>
      </trkpt>
      <trkpt lat="42.78837" lon="0.57715">
        <ele>918.3</ele>
        <time>1970-01-01T00:25:12.000Z</time>
      </trkpt>
      <trkpt lat="42.78837" lon="0.57716">
        <ele>918.3</ele>
        <time>1970-01-01T00:25:13.000Z</time>
      </trkpt>
      <trkpt lat="42.78837" lon="0.57716">
        <ele>918.3</ele>
        <time>1970-01-01T00:25:14.000Z</time>
      </trkpt>
      <trkpt lat="42.78838" lon="0.57716">
        <ele>916.9</ele>
        <time>1970-01-01T00:25:15.000Z</time>
      </trkpt>
      <trkpt lat="42.78838" lon="0.57716">
        <ele>916.8</ele>
        <time>1970-01-01T00:25:17.000Z</time>
      </trkpt>
      <trkpt lat="42.78839" lon="0.57716">
        <ele>916.8</ele>
        <time>1970-01-01T00:25:18.000Z</time>
      </trkpt>
      <trkpt lat="42.78839" lon="0.57715">
        <ele>916.8</ele>
        <time>1970-01-01T00:25:19.000Z</time>
      </trkpt>
      <trkpt lat="42.78839" lon="0.57715">
        <ele>916.7</ele>
        <time>1970-01-01T00:25:21.000Z</time>
      </trkpt>
      <trkpt lat="42.78839" lon="0.57715">
        <ele>916.7</ele>
        <time>1970-01-01T00:25:22.000Z</time>
      </trkpt>
      <trkpt lat="42.78839" lon="0.57715">
        <ele>916.7</ele>
        <time>1970-01-01T00:25:24.000Z</time>
      </trkpt>
      <trkpt lat="42.78839" lon="0.57715">
        <ele>916.6</ele>
        <time>1970-01-01T00:25:25.000Z</time>
      </trkpt>
      <trkpt lat="42.78839" lon="0.57715">
        <ele>916.6</ele>
        <time>1970-01-01T00:25:26.000Z</time>
      </trkpt>
      <trkpt lat="42.78839" lon="0.57715">
        <ele>916.6</ele>
        <time>1970-01-01T00:25:27.000Z</time>
      </trkpt>
      <trkpt lat="42.78839" lon="0.57715">
        <ele>916.5</ele>
        <time>1970-01-01T00:25:29.000Z</time>
      </trkpt>
      <trkpt lat="42.78839" lon="0.57715">
        <ele>916.5</ele>
        <time>1970-01-01T00:25:30.000Z</time>
      </trkpt>
      <trkpt lat="42.78839" lon="0.57715">
        <ele>916.5</ele>
        <time>1970-01-01T00:25:31.000Z</time>
      </trkpt>
      <trkpt lat="42.7884" lon="0.57714">
        <ele>916.4</ele>
        <time>1970-01-01T00:25:32.000Z</time>
      </trkpt>
      <trkpt lat="42.78841" lon="0.57715">
        <ele>916.4</ele>
        <time>1970-01-01T00:25:34.000Z</time>
      </trkpt>
      <trkpt lat="42.78841" lon="0.57716">
        <ele>915.1</ele>
        <time>1970-01-01T00:25:35.000Z</time>
      </trkpt>
      <trkpt lat="42.78841" lon="0.57717">
        <ele>915.1</ele>
        <time>1970-01-01T00:25:36.000Z</time>
      </trkpt>
      <trkpt lat="42.78841" lon="0.57717">
        <ele>915.2</ele>
        <time>1970-01-01T00:25:38.000Z</time>
      </trkpt>
      <trkpt lat="42.78842" lon="0.57717">
        <ele>915.2</ele>
        <time>1970-01-01T00:25:39.000Z</time>
      </trkpt>
      <trkpt lat="42.78843" lon="0.57718">
        <ele>915.1</ele>
        <time>1970-01-01T00:25:41.000Z</time>
      </trkpt>
      <trkpt lat="42.78844" lon="0.57716">
        <ele>914.9</ele>
        <time>1970-01-01T00:25:42.000Z</time>
      </trkpt>
      <trkpt lat="42.78844" lon="0.57715">
        <ele>914.9</ele>
        <time>1970-01-01T00:25:43.000Z</time>
      </trkpt>
      <trkpt lat="42.78844" lon="0.57714">
        <ele>914.9</ele>
        <time>1970-01-01T00:25:44.000Z</time>
      </trkpt>
      <trkpt lat="42.78844" lon="0.57713">
        <ele>914.8</ele>
        <time>1970-01-01T00:25:46.000Z</time>
      </trkpt>
      <trkpt lat="42.78844" lon="0.57713">
        <ele>914.8</ele>
        <time>1970-01-01T00:25:47.000Z</time>
      </trkpt>
      <trkpt lat="42.78844" lon="0.57713">
        <ele>914.8</ele>
        <time>1970-01-01T00:25:48.000Z</time>
      </trkpt>
      <trkpt lat="42.78844" lon="0.57713">
        <ele>914.7</ele>
        <time>1970-01-01T00:25:49.000Z</time>
      </trkpt>
      <trkpt lat="42.78844" lon="0.57713">
        <ele>914.7</ele>
        <time>1970-01-01T00:25:51.000Z</time>
      </trkpt>
      <trkpt lat="42.78844" lon="0.57713">
        <ele>914.7</ele>
        <time>1970-01-01T00:25:53.000Z</time>
      </trkpt>
      <trkpt lat="42.78844" lon="0.57713">
        <ele>914.6</ele>
        <time>1970-01-01T00:25:54.000Z</time>
      </trkpt>
      <trkpt lat="42.78847" lon="0.57714">
        <ele>912.3</ele>
        <time>1970-01-01T00:27:36.000Z</time>
      </trkpt>
      <trkpt lat="42.78849" lon="0.57714">
        <ele>912.3</ele>
        <time>1970-01-01T00:27:37.000Z</time>
      </trkpt>
      <trkpt lat="42.7885" lon="0.57714">
        <ele>912.3</ele>
        <time>1970-01-01T00:27:38.000Z</time>
      </trkpt>
      <trkpt lat="42.78849" lon="0.57714">
        <ele>912.2</ele>
        <time>1970-01-01T00:27:39.000Z</time>
      </trkpt>
      <trkpt lat="42.78849" lon="0.57713">
        <ele>912.2</ele>
        <time>1970-01-01T00:27:41.000Z</time>
      </trkpt>
      <trkpt lat="42.78852" lon="0.57714">
        <ele>911</ele>
        <time>1970-01-01T00:27:43.000Z</time>
      </trkpt>
      <trkpt lat="42.78851" lon="0.57713">
        <ele>910.9</ele>
        <time>1970-01-01T00:27:44.000Z</time>
      </trkpt>
      <trkpt lat="42.78851" lon="0.57713">
        <ele>910.7</ele>
        <time>1970-01-01T00:27:45.000Z</time>
      </trkpt>
      <trkpt lat="42.7885" lon="0.57713">
        <ele>910.6</ele>
        <time>1970-01-01T00:27:46.000Z</time>
      </trkpt>
      <trkpt lat="42.7885" lon="0.57713">
        <ele>910.6</ele>
        <time>1970-01-01T00:27:48.000Z</time>
      </trkpt>
      <trkpt lat="42.7885" lon="0.57713">
        <ele>910.5</ele>
        <time>1970-01-01T00:27:49.000Z</time>
      </trkpt>
      <trkpt lat="42.7885" lon="0.57713">
        <ele>910.5</ele>
        <time>1970-01-01T00:27:50.000Z</time>
      </trkpt>
      <trkpt lat="42.78851" lon="0.57714">
        <ele>910.3</ele>
        <time>1970-01-01T00:27:51.000Z</time>
      </trkpt>
      <trkpt lat="42.78857" lon="0.57717">
        <ele>909</ele>
        <time>1970-01-01T00:27:53.000Z</time>
      </trkpt>
      <trkpt lat="42.78875" lon="0.57725">
        <ele>905.4</ele>
        <time>1970-01-01T00:27:55.000Z</time>
      </trkpt>
      <trkpt lat="42.78875" lon="0.57724">
        <ele>905.3</ele>
        <time>1970-01-01T00:27:57.000Z</time>
      </trkpt>
      <trkpt lat="42.78874" lon="0.57725">
        <ele>905.1</ele>
        <time>1970-01-01T00:27:58.000Z</time>
      </trkpt>
      <trkpt lat="42.78872" lon="0.57725">
        <ele>904.7</ele>
        <time>1970-01-01T00:27:59.000Z</time>
      </trkpt>
      <trkpt lat="42.78871" lon="0.57725">
        <ele>904.6</ele>
        <time>1970-01-01T00:28:00.000Z</time>
      </trkpt>
      <trkpt lat="42.78871" lon="0.57727">
        <ele>904.4</ele>
        <time>1970-01-01T00:28:02.000Z</time>
      </trkpt>
      <trkpt lat="42.78876" lon="0.57729">
        <ele>903.5</ele>
        <time>1970-01-01T00:28:04.000Z</time>
      </trkpt>
      <trkpt lat="42.78881" lon="0.57731">
        <ele>902.5</ele>
        <time>1970-01-01T00:28:05.000Z</time>
      </trkpt>
      <trkpt lat="42.78883" lon="0.57733">
        <ele>901.9</ele>
        <time>1970-01-01T00:28:06.000Z</time>
      </trkpt>
      <trkpt lat="42.78884" lon="0.57734">
        <ele>901.7</ele>
        <time>1970-01-01T00:28:08.000Z</time>
      </trkpt>
      <trkpt lat="42.78885" lon="0.57735">
        <ele>901.5</ele>
        <time>1970-01-01T00:28:09.000Z</time>
      </trkpt>
      <trkpt lat="42.78886" lon="0.57736">
        <ele>901.2</ele>
        <time>1970-01-01T00:28:11.000Z</time>
      </trkpt>
      <trkpt lat="42.78887" lon="0.57736">
        <ele>901</ele>
        <time>1970-01-01T00:28:12.000Z</time>
      </trkpt>
      <trkpt lat="42.78888" lon="0.57737">
        <ele>900.8</ele>
        <time>1970-01-01T00:28:13.000Z</time>
      </trkpt>
      <trkpt lat="42.78889" lon="0.57738">
        <ele>900.6</ele>
        <time>1970-01-01T00:28:15.000Z</time>
      </trkpt>
      <trkpt lat="42.7889" lon="0.57739">
        <ele>900.3</ele>
        <time>1970-01-01T00:29:11.000Z</time>
      </trkpt>
      <trkpt lat="42.78891" lon="0.5774">
        <ele>900.1</ele>
        <time>1970-01-01T00:29:12.000Z</time>
      </trkpt>
      <trkpt lat="42.78892" lon="0.57741">
        <ele>899.9</ele>
        <time>1970-01-01T00:29:13.000Z</time>
      </trkpt>
      <trkpt lat="42.78898" lon="0.57746">
        <ele>898.5</ele>
        <time>1970-01-01T00:29:15.000Z</time>
      </trkpt>
      <trkpt lat="42.78914" lon="0.57763">
        <ele>894.8</ele>
        <time>1970-01-01T00:29:17.000Z</time>
      </trkpt>
      <trkpt lat="42.78929" lon="0.57766">
        <ele>891.8</ele>
        <time>1970-01-01T00:29:19.000Z</time>
      </trkpt>
      <trkpt lat="42.78936" lon="0.57766">
        <ele>890.3</ele>
        <time>1970-01-01T00:29:20.000Z</time>
      </trkpt>
      <trkpt lat="42.78932" lon="0.57759">
        <ele>889</ele>
        <time>1970-01-01T00:29:21.000Z</time>
      </trkpt>
      <trkpt lat="42.78927" lon="0.57755">
        <ele>887.8</ele>
        <time>1970-01-01T00:29:22.000Z</time>
      </trkpt>
      <trkpt lat="42.78923" lon="0.57752">
        <ele>886.8</ele>
        <time>1970-01-01T00:29:23.000Z</time>
      </trkpt>
      <trkpt lat="42.78919" lon="0.57749">
        <ele>886</ele>
        <time>1970-01-01T00:29:25.000Z</time>
      </trkpt>
      <trkpt lat="42.78932" lon="0.57763">
        <ele>883.1</ele>
        <time>1970-01-01T00:29:26.000Z</time>
      </trkpt>
      <trkpt lat="42.78947" lon="0.57776">
        <ele>880.1</ele>
        <time>1970-01-01T00:29:28.000Z</time>
      </trkpt>
      <trkpt lat="42.78953" lon="0.57782">
        <ele>878.9</ele>
        <time>1970-01-01T00:29:30.000Z</time>
      </trkpt>
      <trkpt lat="42.78956" lon="0.57785">
        <ele>878.3</ele>
        <time>1970-01-01T00:29:32.000Z</time>
      </trkpt>
      <trkpt lat="42.78958" lon="0.57787">
        <ele>877.9</ele>
        <time>1970-01-01T00:29:33.000Z</time>
      </trkpt>
      <trkpt lat="42.78959" lon="0.57787">
        <ele>877.8</ele>
        <time>1970-01-01T00:29:34.000Z</time>
      </trkpt>
      <trkpt lat="42.7896" lon="0.57787">
        <ele>877.7</ele>
        <time>1970-01-01T00:29:35.000Z</time>
      </trkpt>
      <trkpt lat="42.78961" lon="0.57788">
        <ele>877.6</ele>
        <time>1970-01-01T00:29:37.000Z</time>
      </trkpt>
      <trkpt lat="42.78962" lon="0.57788">
        <ele>877.4</ele>
        <time>1970-01-01T00:29:39.000Z</time>
      </trkpt>
      <trkpt lat="42.78963" lon="0.57788">
        <ele>877.3</ele>
        <time>1970-01-01T00:29:40.000Z</time>
      </trkpt>
      <trkpt lat="42.78964" lon="0.57788">
        <ele>877.2</ele>
        <time>1970-01-01T00:29:42.000Z</time>
      </trkpt>
      <trkpt lat="42.78965" lon="0.57789">
        <ele>877</ele>
        <time>1970-01-01T00:29:43.000Z</time>
      </trkpt>
      <trkpt lat="42.78966" lon="0.57789">
        <ele>876.9</ele>
        <time>1970-01-01T00:29:44.000Z</time>
      </trkpt>
      <trkpt lat="42.78967" lon="0.57789">
        <ele>876.8</ele>
        <time>1970-01-01T00:29:46.000Z</time>
      </trkpt>
      <trkpt lat="42.78968" lon="0.5779">
        <ele>876.7</ele>
        <time>1970-01-01T00:29:48.000Z</time>
      </trkpt>
      <trkpt lat="42.78969" lon="0.5779">
        <ele>876.6</ele>
        <time>1970-01-01T00:29:50.000Z</time>
      </trkpt>
      <trkpt lat="42.7897" lon="0.5779">
        <ele>876.4</ele>
        <time>1970-01-01T00:29:51.000Z</time>
      </trkpt>
      <trkpt lat="42.78971" lon="0.5779">
        <ele>876.3</ele>
        <time>1970-01-01T00:29:52.000Z</time>
      </trkpt>
      <trkpt lat="42.78972" lon="0.57791">
        <ele>876.2</ele>
        <time>1970-01-01T00:29:54.000Z</time>
      </trkpt>
      <trkpt lat="42.78973" lon="0.57791">
        <ele>876.1</ele>
        <time>1970-01-01T00:30:04.000Z</time>
      </trkpt>
      <trkpt lat="42.78974" lon="0.57791">
        <ele>876</ele>
        <time>1970-01-01T00:30:05.000Z</time>
      </trkpt>
      <trkpt lat="42.78986" lon="0.57797">
        <ele>871.6</ele>
        <time>1970-01-01T00:30:07.000Z</time>
      </trkpt>
      <trkpt lat="42.78993" lon="0.57798">
        <ele>869</ele>
        <time>1970-01-01T00:30:08.000Z</time>
      </trkpt>
      <trkpt lat="42.79001" lon="0.57797">
        <ele>866.2</ele>
        <time>1970-01-01T00:30:09.000Z</time>
      </trkpt>
      <trkpt lat="42.79014" lon="0.57798">
        <ele>860.8</ele>
        <time>1970-01-01T00:30:11.000Z</time>
      </trkpt>
      <trkpt lat="42.7902" lon="0.578">
        <ele>858.2</ele>
        <time>1970-01-01T00:30:12.000Z</time>
      </trkpt>
      <trkpt lat="42.79026" lon="0.57803">
        <ele>855.5</ele>
        <time>1970-01-01T00:30:13.000Z</time>
      </trkpt>
      <trkpt lat="42.7904" lon="0.57812">
        <ele>847.5</ele>
        <time>1970-01-01T00:30:15.000Z</time>
      </trkpt>
      <trkpt lat="42.79051" lon="0.57819">
        <ele>841.4</ele>
        <time>1970-01-01T00:30:17.000Z</time>
      </trkpt>
      <trkpt lat="42.79057" lon="0.5782">
        <ele>840.2</ele>
        <time>1970-01-01T00:30:18.000Z</time>
      </trkpt>
      <trkpt lat="42.79062" lon="0.57821">
        <ele>838.8</ele>
        <time>1970-01-01T00:30:19.000Z</time>
      </trkpt>
      <trkpt lat="42.79068" lon="0.57822">
        <ele>837.6</ele>
        <time>1970-01-01T00:30:20.000Z</time>
      </trkpt>
      <trkpt lat="42.79073" lon="0.5782">
        <ele>836.3</ele>
        <time>1970-01-01T00:30:21.000Z</time>
      </trkpt>
      <trkpt lat="42.79077" lon="0.57817">
        <ele>835.2</ele>
        <time>1970-01-01T00:30:22.000Z</time>
      </trkpt>
      <trkpt lat="42.79075" lon="0.57813">
        <ele>834.3</ele>
        <time>1970-01-01T00:30:23.000Z</time>
      </trkpt>
      <trkpt lat="42.7908" lon="0.57809">
        <ele>832.9</ele>
        <time>1970-01-01T00:30:24.000Z</time>
      </trkpt>
      <trkpt lat="42.79077" lon="0.57806">
        <ele>832</ele>
        <time>1970-01-01T00:30:26.000Z</time>
      </trkpt>
      <trkpt lat="42.79081" lon="0.57806">
        <ele>831.1</ele>
        <time>1970-01-01T00:30:27.000Z</time>
      </trkpt>
      <trkpt lat="42.79085" lon="0.57814">
        <ele>829.6</ele>
        <time>1970-01-01T00:30:28.000Z</time>
      </trkpt>
      <trkpt lat="42.79089" lon="0.57824">
        <ele>820.2</ele>
        <time>1970-01-01T00:30:29.000Z</time>
      </trkpt>
      <trkpt lat="42.79096" lon="0.57849">
        <ele>815.8</ele>
        <time>1970-01-01T00:30:31.000Z</time>
      </trkpt>
      <trkpt lat="42.79096" lon="0.57862">
        <ele>813.9</ele>
        <time>1970-01-01T00:30:32.000Z</time>
      </trkpt>
      <trkpt lat="42.7909" lon="0.57886">
        <ele>810</ele>
        <time>1970-01-01T00:30:34.000Z</time>
      </trkpt>
      <trkpt lat="42.79089" lon="0.57889">
        <ele>809.3</ele>
        <time>1970-01-01T00:30:35.000Z</time>
      </trkpt>
      <trkpt lat="42.7909" lon="0.57881">
        <ele>807.9</ele>
        <time>1970-01-01T00:30:36.000Z</time>
      </trkpt>
      <trkpt lat="42.79092" lon="0.579">
        <ele>804.5</ele>
        <time>1970-01-01T00:30:38.000Z</time>
      </trkpt>
      <trkpt lat="42.79098" lon="0.57922">
        <ele>799.8</ele>
        <time>1970-01-01T00:30:40.000Z</time>
      </trkpt>
      <trkpt lat="42.79107" lon="0.57941">
        <ele>793.6</ele>
        <time>1970-01-01T00:30:42.000Z</time>
      </trkpt>
      <trkpt lat="42.79115" lon="0.57957">
        <ele>788.2</ele>
        <time>1970-01-01T00:30:44.000Z</time>
      </trkpt>
      <trkpt lat="42.79117" lon="0.57966">
        <ele>785.5</ele>
        <time>1970-01-01T00:30:45.000Z</time>
      </trkpt>
      <trkpt lat="42.79115" lon="0.57983">
        <ele>780.5</ele>
        <time>1970-01-01T00:30:47.000Z</time>
      </trkpt>
      <trkpt lat="42.7911" lon="0.5801">
        <ele>774</ele>
        <time>1970-01-01T00:30:49.000Z</time>
      </trkpt>
      <trkpt lat="42.79107" lon="0.58023">
        <ele>771.5</ele>
        <time>1970-01-01T00:30:50.000Z</time>
      </trkpt>
      <trkpt lat="42.79103" lon="0.58045">
        <ele>768.4</ele>
        <time>1970-01-01T00:30:52.000Z</time>
      </trkpt>
      <trkpt lat="42.79102" lon="0.58051">
        <ele>767.7</ele>
        <time>1970-01-01T00:30:53.000Z</time>
      </trkpt>
      <trkpt lat="42.791" lon="0.58056">
        <ele>767.2</ele>
        <time>1970-01-01T00:30:55.000Z</time>
      </trkpt>
      <trkpt lat="42.791" lon="0.58057">
        <ele>767.1</ele>
        <time>1970-01-01T00:30:56.000Z</time>
      </trkpt>
      <trkpt lat="42.79099" lon="0.58061">
        <ele>766.6</ele>
        <time>1970-01-01T00:30:57.000Z</time>
      </trkpt>
      <trkpt lat="42.79094" lon="0.58075">
        <ele>764.8</ele>
        <time>1970-01-01T00:30:59.000Z</time>
      </trkpt>
      <trkpt lat="42.79094" lon="0.58092">
        <ele>762.6</ele>
        <time>1970-01-01T00:31:01.000Z</time>
      </trkpt>
      <trkpt lat="42.79095" lon="0.58102">
        <ele>760.9</ele>
        <time>1970-01-01T00:31:02.000Z</time>
      </trkpt>
      <trkpt lat="42.79095" lon="0.58116">
        <ele>758.4</ele>
        <time>1970-01-01T00:31:03.000Z</time>
      </trkpt>
      <trkpt lat="42.79094" lon="0.5815">
        <ele>752.1</ele>
        <time>1970-01-01T00:31:05.000Z</time>
      </trkpt>
      <trkpt lat="42.79091" lon="0.58168">
        <ele>749.1</ele>
        <time>1970-01-01T00:31:06.000Z</time>
      </trkpt>
      <trkpt lat="42.79091" lon="0.58185">
        <ele>746.2</ele>
        <time>1970-01-01T00:31:07.000Z</time>
      </trkpt>
      <trkpt lat="42.79091" lon="0.58201">
        <ele>743.4</ele>
        <time>1970-01-01T00:31:08.000Z</time>
      </trkpt>
      <trkpt lat="42.79093" lon="0.5823">
        <ele>738.2</ele>
        <time>1970-01-01T00:31:10.000Z</time>
      </trkpt>
      <trkpt lat="42.79094" lon="0.5826">
        <ele>732.6</ele>
        <time>1970-01-01T00:31:12.000Z</time>
      </trkpt>
      <trkpt lat="42.79095" lon="0.58275">
        <ele>730.2</ele>
        <time>1970-01-01T00:31:13.000Z</time>
      </trkpt>
      <trkpt lat="42.79097" lon="0.583">
        <ele>726</ele>
        <time>1970-01-01T00:31:15.000Z</time>
      </trkpt>
      <trkpt lat="42.79096" lon="0.58311">
        <ele>724.2</ele>
        <time>1970-01-01T00:31:16.000Z</time>
      </trkpt>
      <trkpt lat="42.79099" lon="0.58329">
        <ele>721.1</ele>
        <time>1970-01-01T00:31:18.000Z</time>
      </trkpt>
      <trkpt lat="42.79104" lon="0.58339">
        <ele>719.2</ele>
        <time>1970-01-01T00:31:19.000Z</time>
      </trkpt>
      <trkpt lat="42.79108" lon="0.58349">
        <ele>717.2</ele>
        <time>1970-01-01T00:31:20.000Z</time>
      </trkpt>
      <trkpt lat="42.79108" lon="0.58364">
        <ele>715.1</ele>
        <time>1970-01-01T00:31:21.000Z</time>
      </trkpt>
      <trkpt lat="42.79107" lon="0.5838">
        <ele>713.1</ele>
        <time>1970-01-01T00:31:22.000Z</time>
      </trkpt>
      <trkpt lat="42.79105" lon="0.5841">
        <ele>709.6</ele>
        <time>1970-01-01T00:31:24.000Z</time>
      </trkpt>
      <trkpt lat="42.79106" lon="0.58424">
        <ele>707.7</ele>
        <time>1970-01-01T00:31:25.000Z</time>
      </trkpt>
      <trkpt lat="42.79108" lon="0.58439">
        <ele>705.3</ele>
        <time>1970-01-01T00:31:26.000Z</time>
      </trkpt>
      <trkpt lat="42.79113" lon="0.58466">
        <ele>700.4</ele>
        <time>1970-01-01T00:31:28.000Z</time>
      </trkpt>
      <trkpt lat="42.79115" lon="0.58476">
        <ele>698.6</ele>
        <time>1970-01-01T00:31:29.000Z</time>
      </trkpt>
      <trkpt lat="42.79116" lon="0.585">
        <ele>694.4</ele>
        <time>1970-01-01T00:31:31.000Z</time>
      </trkpt>
      <trkpt lat="42.79116" lon="0.58513">
        <ele>692</ele>
        <time>1970-01-01T00:31:32.000Z</time>
      </trkpt>
      <trkpt lat="42.79117" lon="0.58539">
        <ele>686.8</ele>
        <time>1970-01-01T00:31:34.000Z</time>
      </trkpt>
      <trkpt lat="42.79116" lon="0.58561">
        <ele>682.1</ele>
        <time>1970-01-01T00:31:36.000Z</time>
      </trkpt>
      <trkpt lat="42.79117" lon="0.58572">
        <ele>679.8</ele>
        <time>1970-01-01T00:31:37.000Z</time>
      </trkpt>
      <trkpt lat="42.7912" lon="0.58593">
        <ele>675.2</ele>
        <time>1970-01-01T00:31:39.000Z</time>
      </trkpt>
      <trkpt lat="42.79124" lon="0.58612">
        <ele>670.8</ele>
        <time>1970-01-01T00:31:41.000Z</time>
      </trkpt>
      <trkpt lat="42.79121" lon="0.58627">
        <ele>667.7</ele>
        <time>1970-01-01T00:31:43.000Z</time>
      </trkpt>
      <trkpt lat="42.79115" lon="0.58631">
        <ele>663.7</ele>
        <time>1970-01-01T00:31:44.000Z</time>
      </trkpt>
      <trkpt lat="42.79102" lon="0.58641">
        <ele>661.5</ele>
        <time>1970-01-01T00:31:46.000Z</time>
      </trkpt>
      <trkpt lat="42.79099" lon="0.58646">
        <ele>660.9</ele>
        <time>1970-01-01T00:31:47.000Z</time>
      </trkpt>
      <trkpt lat="42.79098" lon="0.58651">
        <ele>660.4</ele>
        <time>1970-01-01T00:31:49.000Z</time>
      </trkpt>
      <trkpt lat="42.791" lon="0.58653">
        <ele>660.4</ele>
        <time>1970-01-01T00:31:51.000Z</time>
      </trkpt>
      <trkpt lat="42.79102" lon="0.58655">
        <ele>660</ele>
        <time>1970-01-01T00:31:53.000Z</time>
      </trkpt>
      <trkpt lat="42.79103" lon="0.58655">
        <ele>659.9</ele>
        <time>1970-01-01T00:31:54.000Z</time>
      </trkpt>
      <trkpt lat="42.79103" lon="0.58655">
        <ele>659.9</ele>
        <time>1970-01-01T00:31:55.000Z</time>
      </trkpt>
      <trkpt lat="42.79103" lon="0.58655">
        <ele>659.8</ele>
        <time>1970-01-01T00:31:57.000Z</time>
      </trkpt>
      <trkpt lat="42.79103" lon="0.58655">
        <ele>659.8</ele>
        <time>1970-01-01T00:31:59.000Z</time>
      </trkpt>
      <trkpt lat="42.79103" lon="0.58655">
        <ele>659.7</ele>
        <time>1970-01-01T00:32:00.000Z</time>
      </trkpt>
      <trkpt lat="42.79103" lon="0.58655">
        <ele>659.7</ele>
        <time>1970-01-01T00:32:01.000Z</time>
      </trkpt>
      <trkpt lat="42.79106" lon="0.58659">
        <ele>658.9</ele>
        <time>1970-01-01T00:33:10.000Z</time>
      </trkpt>
      <trkpt lat="42.79106" lon="0.58659">
        <ele>658.8</ele>
        <time>1970-01-01T00:33:11.000Z</time>
      </trkpt>
      <trkpt lat="42.79106" lon="0.58659">
        <ele>658.7</ele>
        <time>1970-01-01T00:33:13.000Z</time>
      </trkpt>
      <trkpt lat="42.79106" lon="0.58659">
        <ele>658.7</ele>
        <time>1970-01-01T00:33:14.000Z</time>
      </trkpt>
      <trkpt lat="42.79106" lon="0.58659">
        <ele>658.6</ele>
        <time>1970-01-01T00:33:15.000Z</time>
      </trkpt>
      <trkpt lat="42.79107" lon="0.58659">
        <ele>658.4</ele>
        <time>1970-01-01T00:33:17.000Z</time>
      </trkpt>
      <trkpt lat="42.79108" lon="0.58659">
        <ele>658.3</ele>
        <time>1970-01-01T00:33:18.000Z</time>
      </trkpt>
      <trkpt lat="42.79108" lon="0.58659">
        <ele>658.2</ele>
        <time>1970-01-01T00:33:20.000Z</time>
      </trkpt>
      <trkpt lat="42.79108" lon="0.58659">
        <ele>658.2</ele>
        <time>1970-01-01T00:33:21.000Z</time>
      </trkpt>
      <trkpt lat="42.79106" lon="0.58659">
        <ele>657.7</ele>
        <time>1970-01-01T00:33:23.000Z</time>
      </trkpt>
      <trkpt lat="42.79106" lon="0.58659">
        <ele>657.7</ele>
        <time>1970-01-01T00:33:24.000Z</time>
      </trkpt>
      <trkpt lat="42.79106" lon="0.58659">
        <ele>657.6</ele>
        <time>1970-01-01T00:33:25.000Z</time>
      </trkpt>
      <trkpt lat="42.79108" lon="0.58671">
        <ele>655.8</ele>
        <time>1970-01-01T00:33:27.000Z</time>
      </trkpt>
      <trkpt lat="42.79114" lon="0.58692">
        <ele>652.5</ele>
        <time>1970-01-01T00:33:29.000Z</time>
      </trkpt>
      <trkpt lat="42.79118" lon="0.58704">
        <ele>650.8</ele>
        <time>1970-01-01T00:33:30.000Z</time>
      </trkpt>
      <trkpt lat="42.7912" lon="0.58717">
        <ele>649.2</ele>
        <time>1970-01-01T00:33:31.000Z</time>
      </trkpt>
      <trkpt lat="42.79124" lon="0.58742">
        <ele>646.4</ele>
        <time>1970-01-01T00:33:33.000Z</time>
      </trkpt>
      <trkpt lat="42.79125" lon="0.58753">
        <ele>645.1</ele>
        <time>1970-01-01T00:33:34.000Z</time>
      </trkpt>
      <trkpt lat="42.79128" lon="0.58773">
        <ele>643.1</ele>
        <time>1970-01-01T00:33:36.000Z</time>
      </trkpt>
      <trkpt lat="42.7913" lon="0.58782">
        <ele>642.4</ele>
        <time>1970-01-01T00:33:37.000Z</time>
      </trkpt>
      <trkpt lat="42.79131" lon="0.58789">
        <ele>641.8</ele>
        <time>1970-01-01T00:33:38.000Z</time>
      </trkpt>
      <trkpt lat="42.79133" lon="0.58795">
        <ele>641.2</ele>
        <time>1970-01-01T00:33:39.000Z</time>
      </trkpt>
      <trkpt lat="42.79135" lon="0.58804">
        <ele>640.6</ele>
        <time>1970-01-01T00:33:41.000Z</time>
      </trkpt>
      <trkpt lat="42.79136" lon="0.58807">
        <ele>639.9</ele>
        <time>1970-01-01T00:33:42.000Z</time>
      </trkpt>
      <trkpt lat="42.79136" lon="0.58807">
        <ele>639.8</ele>
        <time>1970-01-01T00:33:43.000Z</time>
      </trkpt>
      <trkpt lat="42.79137" lon="0.58808">
        <ele>639.8</ele>
        <time>1970-01-01T00:33:45.000Z</time>
      </trkpt>
      <trkpt lat="42.79137" lon="0.58811">
        <ele>639.8</ele>
        <time>1970-01-01T00:33:46.000Z</time>
      </trkpt>
      <trkpt lat="42.79136" lon="0.58809">
        <ele>639.7</ele>
        <time>1970-01-01T00:33:47.000Z</time>
      </trkpt>
      <trkpt lat="42.79135" lon="0.58804">
        <ele>639.6</ele>
        <time>1970-01-01T00:33:49.000Z</time>
      </trkpt>
      <trkpt lat="42.79134" lon="0.58804">
        <ele>639.6</ele>
        <time>1970-01-01T00:33:50.000Z</time>
      </trkpt>
      <trkpt lat="42.79133" lon="0.58803">
        <ele>639.5</ele>
        <time>1970-01-01T00:33:51.000Z</time>
      </trkpt>
      <trkpt lat="42.7913" lon="0.58802">
        <ele>639.5</ele>
        <time>1970-01-01T00:33:53.000Z</time>
      </trkpt>
      <trkpt lat="42.79123" lon="0.58805">
        <ele>639.3</ele>
        <time>1970-01-01T00:33:55.000Z</time>
      </trkpt>
      <trkpt lat="42.79117" lon="0.58807">
        <ele>639.1</ele>
        <time>1970-01-01T00:33:56.000Z</time>
      </trkpt>
      <trkpt lat="42.79109" lon="0.58809">
        <ele>639</ele>
        <time>1970-01-01T00:33:57.000Z</time>
      </trkpt>
      <trkpt lat="42.791" lon="0.58811">
        <ele>638.9</ele>
        <time>1970-01-01T00:33:59.000Z</time>
      </trkpt>
      <trkpt lat="42.79093" lon="0.58813">
        <ele>638.8</ele>
        <time>1970-01-01T00:34:00.000Z</time>
      </trkpt>
      <trkpt lat="42.79087" lon="0.58817">
        <ele>638.7</ele>
        <time>1970-01-01T00:34:01.000Z</time>
      </trkpt>
      <trkpt lat="42.79079" lon="0.58819">
        <ele>638.6</ele>
        <time>1970-01-01T00:34:03.000Z</time>
      </trkpt>
      <trkpt lat="42.79074" lon="0.58819">
        <ele>638.5</ele>
        <time>1970-01-01T00:34:04.000Z</time>
      </trkpt>
      <trkpt lat="42.7907" lon="0.5882">
        <ele>638.5</ele>
        <time>1970-01-01T00:34:05.000Z</time>
      </trkpt>
      <trkpt lat="42.7906" lon="0.58822">
        <ele>638.4</ele>
        <time>1970-01-01T00:34:07.000Z</time>
      </trkpt>
      <trkpt lat="42.79055" lon="0.58828">
        <ele>638.3</ele>
        <time>1970-01-01T00:34:09.000Z</time>
      </trkpt>
      <trkpt lat="42.79048" lon="0.58841">
        <ele>637.9</ele>
        <time>1970-01-01T00:34:10.000Z</time>
      </trkpt>
      <trkpt lat="42.79046" lon="0.58849">
        <ele>637.7</ele>
        <time>1970-01-01T00:34:11.000Z</time>
      </trkpt>
      <trkpt lat="42.79041" lon="0.58862">
        <ele>637.3</ele>
        <time>1970-01-01T00:34:13.000Z</time>
      </trkpt>
      <trkpt lat="42.7904" lon="0.58866">
        <ele>637.2</ele>
        <time>1970-01-01T00:34:14.000Z</time>
      </trkpt>
      <trkpt lat="42.79039" lon="0.58869">
        <ele>637.1</ele>
        <time>1970-01-01T00:34:16.000Z</time>
      </trkpt>
      <trkpt lat="42.79036" lon="0.58875">
        <ele>636.9</ele>
        <time>1970-01-01T00:34:17.000Z</time>
      </trkpt>
      <trkpt lat="42.79033" lon="0.58885">
        <ele>636.6</ele>
        <time>1970-01-01T00:34:18.000Z</time>
      </trkpt>
      <trkpt lat="42.79032" lon="0.5889">
        <ele>636.5</ele>
        <time>1970-01-01T00:34:19.000Z</time>
      </trkpt>
      <trkpt lat="42.79031" lon="0.58894">
        <ele>636.3</ele>
        <time>1970-01-01T00:34:20.000Z</time>
      </trkpt>
      <trkpt lat="42.79029" lon="0.589">
        <ele>636.2</ele>
        <time>1970-01-01T00:34:21.000Z</time>
      </trkpt>
      <trkpt lat="42.79028" lon="0.58911">
        <ele>636</ele>
        <time>1970-01-01T00:34:23.000Z</time>
      </trkpt>
      <trkpt lat="42.79026" lon="0.58921">
        <ele>635.8</ele>
        <time>1970-01-01T00:34:24.000Z</time>
      </trkpt>
      <trkpt lat="42.79022" lon="0.58925">
        <ele>636.9</ele>
        <time>1970-01-01T00:34:26.000Z</time>
      </trkpt>
      <trkpt lat="42.79018" lon="0.58925">
        <ele>638.2</ele>
        <time>1970-01-01T00:34:27.000Z</time>
      </trkpt>
      <trkpt lat="42.79007" lon="0.58924">
        <ele>638.7</ele>
        <time>1970-01-01T00:34:29.000Z</time>
      </trkpt>
      <trkpt lat="42.79002" lon="0.58923">
        <ele>638.8</ele>
        <time>1970-01-01T00:34:30.000Z</time>
      </trkpt>
      <trkpt lat="42.78998" lon="0.58923">
        <ele>638.8</ele>
        <time>1970-01-01T00:34:31.000Z</time>
      </trkpt>
      <trkpt lat="42.78992" lon="0.58927">
        <ele>638.9</ele>
        <time>1970-01-01T00:34:32.000Z</time>
      </trkpt>
      <trkpt lat="42.78984" lon="0.58927">
        <ele>639.1</ele>
        <time>1970-01-01T00:34:34.000Z</time>
      </trkpt>
      <trkpt lat="42.78978" lon="0.58926">
        <ele>639.2</ele>
        <time>1970-01-01T00:34:36.000Z</time>
      </trkpt>
      <trkpt lat="42.78972" lon="0.58925">
        <ele>639.3</ele>
        <time>1970-01-01T00:34:37.000Z</time>
      </trkpt>
      <trkpt lat="42.78968" lon="0.58924">
        <ele>639.3</ele>
        <time>1970-01-01T00:34:38.000Z</time>
      </trkpt>
      <trkpt lat="42.78961" lon="0.58923">
        <ele>639.5</ele>
        <time>1970-01-01T00:34:39.000Z</time>
      </trkpt>
      <trkpt lat="42.78955" lon="0.58922">
        <ele>639.7</ele>
        <time>1970-01-01T00:34:41.000Z</time>
      </trkpt>
      <trkpt lat="42.78951" lon="0.58922">
        <ele>639.8</ele>
        <time>1970-01-01T00:34:42.000Z</time>
      </trkpt>
      <trkpt lat="42.78944" lon="0.58922">
        <ele>640.1</ele>
        <time>1970-01-01T00:34:43.000Z</time>
      </trkpt>
      <trkpt lat="42.78937" lon="0.5892">
        <ele>640.4</ele>
        <time>1970-01-01T00:34:45.000Z</time>
      </trkpt>
      <trkpt lat="42.7893" lon="0.58918">
        <ele>640.7</ele>
        <time>1970-01-01T00:34:46.000Z</time>
      </trkpt>
      <trkpt lat="42.78923" lon="0.58918">
        <ele>641.1</ele>
        <time>1970-01-01T00:34:48.000Z</time>
      </trkpt>
      <trkpt lat="42.78916" lon="0.58918">
        <ele>641.5</ele>
        <time>1970-01-01T00:34:49.000Z</time>
      </trkpt>
      <trkpt lat="42.7891" lon="0.58918">
        <ele>641.8</ele>
        <time>1970-01-01T00:34:51.000Z</time>
      </trkpt>
      <trkpt lat="42.78904" lon="0.58918">
        <ele>642.1</ele>
        <time>1970-01-01T00:34:52.000Z</time>
      </trkpt>
      <trkpt lat="42.78898" lon="0.58917">
        <ele>642.3</ele>
        <time>1970-01-01T00:34:54.000Z</time>
      </trkpt>
      <trkpt lat="42.7889" lon="0.58915">
        <ele>645.5</ele>
        <time>1970-01-01T00:34:56.000Z</time>
      </trkpt>
      <trkpt lat="42.78886" lon="0.58916">
        <ele>650.7</ele>
        <time>1970-01-01T00:34:57.000Z</time>
      </trkpt>
      <trkpt lat="42.78882" lon="0.58919">
        <ele>650.2</ele>
        <time>1970-01-01T00:34:58.000Z</time>
      </trkpt>
      <trkpt lat="42.78877" lon="0.58922">
        <ele>649.8</ele>
        <time>1970-01-01T00:35:00.000Z</time>
      </trkpt>
      <trkpt lat="42.78874" lon="0.58926">
        <ele>649.3</ele>
        <time>1970-01-01T00:35:01.000Z</time>
      </trkpt>
      <trkpt lat="42.7887" lon="0.5893">
        <ele>648.9</ele>
        <time>1970-01-01T00:35:02.000Z</time>
      </trkpt>
      <trkpt lat="42.78866" lon="0.58934">
        <ele>648.2</ele>
        <time>1970-01-01T00:35:04.000Z</time>
      </trkpt>
      <trkpt lat="42.78862" lon="0.58938">
        <ele>647.7</ele>
        <time>1970-01-01T00:35:05.000Z</time>
      </trkpt>
      <trkpt lat="42.78857" lon="0.58944">
        <ele>646.9</ele>
        <time>1970-01-01T00:35:06.000Z</time>
      </trkpt>
      <trkpt lat="42.78854" lon="0.58948">
        <ele>646.3</ele>
        <time>1970-01-01T00:35:08.000Z</time>
      </trkpt>
      <trkpt lat="42.78845" lon="0.58959">
        <ele>644.7</ele>
        <time>1970-01-01T00:35:10.000Z</time>
      </trkpt>
      <trkpt lat="42.78839" lon="0.58966">
        <ele>643.7</ele>
        <time>1970-01-01T00:35:11.000Z</time>
      </trkpt>
      <trkpt lat="42.78835" lon="0.58972">
        <ele>643.4</ele>
        <time>1970-01-01T00:35:13.000Z</time>
      </trkpt>
      <trkpt lat="42.78832" lon="0.58977">
        <ele>643.4</ele>
        <time>1970-01-01T00:35:14.000Z</time>
      </trkpt>
      <trkpt lat="42.78828" lon="0.58986">
        <ele>643.5</ele>
        <time>1970-01-01T00:35:15.000Z</time>
      </trkpt>
      <trkpt lat="42.78824" lon="0.58993">
        <ele>643.6</ele>
        <time>1970-01-01T00:35:17.000Z</time>
      </trkpt>
      <trkpt lat="42.78821" lon="0.59001">
        <ele>643.8</ele>
        <time>1970-01-01T00:35:18.000Z</time>
      </trkpt>
      <trkpt lat="42.78817" lon="0.59009">
        <ele>644</ele>
        <time>1970-01-01T00:35:20.000Z</time>
      </trkpt>
      <trkpt lat="42.78814" lon="0.59017">
        <ele>644.1</ele>
        <time>1970-01-01T00:35:21.000Z</time>
      </trkpt>
      <trkpt lat="42.78812" lon="0.59023">
        <ele>644.3</ele>
        <time>1970-01-01T00:35:23.000Z</time>
      </trkpt>
      <trkpt lat="42.7881" lon="0.59027">
        <ele>644.4</ele>
        <time>1970-01-01T00:35:24.000Z</time>
      </trkpt>
      <trkpt lat="42.78807" lon="0.59032">
        <ele>645.9</ele>
        <time>1970-01-01T00:35:25.000Z</time>
      </trkpt>
      <trkpt lat="42.78804" lon="0.59037">
        <ele>647</ele>
        <time>1970-01-01T00:35:26.000Z</time>
      </trkpt>
      <trkpt lat="42.78801" lon="0.59041">
        <ele>648</ele>
        <time>1970-01-01T00:35:27.000Z</time>
      </trkpt>
      <trkpt lat="42.78798" lon="0.59044">
        <ele>648.9</ele>
        <time>1970-01-01T00:35:29.000Z</time>
      </trkpt>
      <trkpt lat="42.78795" lon="0.59046">
        <ele>649.7</ele>
        <time>1970-01-01T00:35:30.000Z</time>
      </trkpt>
      <trkpt lat="42.78792" lon="0.59048">
        <ele>650.5</ele>
        <time>1970-01-01T00:35:31.000Z</time>
      </trkpt>
      <trkpt lat="42.78789" lon="0.5905">
        <ele>644.7</ele>
        <time>1970-01-01T00:35:33.000Z</time>
      </trkpt>
      <trkpt lat="42.78789" lon="0.59051">
        <ele>645.1</ele>
        <time>1970-01-01T00:35:34.000Z</time>
      </trkpt>
      <trkpt lat="42.78788" lon="0.59053">
        <ele>646.1</ele>
        <time>1970-01-01T00:35:35.000Z</time>
      </trkpt>
      <trkpt lat="42.78788" lon="0.59054">
        <ele>646.6</ele>
        <time>1970-01-01T00:35:37.000Z</time>
      </trkpt>
      <trkpt lat="42.78788" lon="0.59056">
        <ele>647.2</ele>
        <time>1970-01-01T00:35:39.000Z</time>
      </trkpt>
      <trkpt lat="42.78788" lon="0.59057">
        <ele>647.8</ele>
        <time>1970-01-01T00:35:40.000Z</time>
      </trkpt>
      <trkpt lat="42.78788" lon="0.59061">
        <ele>649.3</ele>
        <time>1970-01-01T00:35:41.000Z</time>
      </trkpt>
      <trkpt lat="42.78787" lon="0.59063">
        <ele>649.3</ele>
        <time>1970-01-01T00:35:43.000Z</time>
      </trkpt>
      <trkpt lat="42.78786" lon="0.59062">
        <ele>649.3</ele>
        <time>1970-01-01T00:35:44.000Z</time>
      </trkpt>
      <trkpt lat="42.78786" lon="0.59062">
        <ele>649.3</ele>
        <time>1970-01-01T00:35:45.000Z</time>
      </trkpt>
      <trkpt lat="42.78786" lon="0.59065">
        <ele>649.3</ele>
        <time>1970-01-01T00:35:46.000Z</time>
      </trkpt>
      <trkpt lat="42.78786" lon="0.59067">
        <ele>649.3</ele>
        <time>1970-01-01T00:35:48.000Z</time>
      </trkpt>
      <trkpt lat="42.78785" lon="0.59067">
        <ele>649.3</ele>
        <time>1970-01-01T00:35:49.000Z</time>
      </trkpt>
      <trkpt lat="42.78783" lon="0.59067">
        <ele>649.3</ele>
        <time>1970-01-01T00:35:50.000Z</time>
      </trkpt>
      <trkpt lat="42.78782" lon="0.59067">
        <ele>649.3</ele>
        <time>1970-01-01T00:35:51.000Z</time>
      </trkpt>
      <trkpt lat="42.78781" lon="0.59067">
        <ele>649.3</ele>
        <time>1970-01-01T00:35:53.000Z</time>
      </trkpt>
      <trkpt lat="42.78779" lon="0.59068">
        <ele>649.3</ele>
        <time>1970-01-01T00:35:55.000Z</time>
      </trkpt>
      <trkpt lat="42.78782" lon="0.59075">
        <ele>649.3</ele>
        <time>1970-01-01T00:35:56.000Z</time>
      </trkpt>
      <trkpt lat="42.78786" lon="0.5908">
        <ele>648.3</ele>
        <time>1970-01-01T00:35:58.000Z</time>
      </trkpt>
      <trkpt lat="42.78787" lon="0.59082">
        <ele>648</ele>
        <time>1970-01-01T00:35:59.000Z</time>
      </trkpt>
      <trkpt lat="42.78788" lon="0.59084">
        <ele>647.7</ele>
        <time>1970-01-01T00:36:00.000Z</time>
      </trkpt>
      <trkpt lat="42.78788" lon="0.59085">
        <ele>647.7</ele>
        <time>1970-01-01T00:36:01.000Z</time>
      </trkpt>
      <trkpt lat="42.78787" lon="0.59086">
        <ele>647.5</ele>
        <time>1970-01-01T00:36:03.000Z</time>
      </trkpt>
      <trkpt lat="42.78787" lon="0.59088">
        <ele>647.3</ele>
        <time>1970-01-01T00:36:04.000Z</time>
      </trkpt>
      <trkpt lat="42.78786" lon="0.59091">
        <ele>647</ele>
        <time>1970-01-01T00:36:05.000Z</time>
      </trkpt>
      <trkpt lat="42.78786" lon="0.59092">
        <ele>646.9</ele>
        <time>1970-01-01T00:36:07.000Z</time>
      </trkpt>
      <trkpt lat="42.78786" lon="0.59093">
        <ele>646.8</ele>
        <time>1970-01-01T00:36:08.000Z</time>
      </trkpt>
      <trkpt lat="42.78786" lon="0.59096">
        <ele>646.5</ele>
        <time>1970-01-01T00:36:10.000Z</time>
      </trkpt>
      <trkpt lat="42.78793" lon="0.59095">
        <ele>645.6</ele>
        <time>1970-01-01T00:36:12.000Z</time>
      </trkpt>
      <trkpt lat="42.78793" lon="0.59095">
        <ele>645.6</ele>
        <time>1970-01-01T00:36:13.000Z</time>
      </trkpt>
      <trkpt lat="42.78793" lon="0.59095">
        <ele>645.6</ele>
        <time>1970-01-01T00:36:15.000Z</time>
      </trkpt>
      <trkpt lat="42.78794" lon="0.59094">
        <ele>645.3</ele>
        <time>1970-01-01T00:36:16.000Z</time>
      </trkpt>
      <trkpt lat="42.78794" lon="0.59094">
        <ele>645.3</ele>
        <time>1970-01-01T00:36:17.000Z</time>
      </trkpt>
      <trkpt lat="42.78794" lon="0.59094">
        <ele>645.3</ele>
        <time>1970-01-01T00:36:19.000Z</time>
      </trkpt>
      <trkpt lat="42.78796" lon="0.59093">
        <ele>645.3</ele>
        <time>1970-01-01T00:36:21.000Z</time>
      </trkpt>
      <trkpt lat="42.78799" lon="0.59092">
        <ele>645.3</ele>
        <time>1970-01-01T00:36:29.000Z</time>
      </trkpt>
      <trkpt lat="42.78799" lon="0.59092">
        <ele>645.3</ele>
        <time>1970-01-01T00:36:30.000Z</time>
      </trkpt>
    </trkseg>
  </trk>
</gpx>